<?xml version="1.0" encoding="UTF-8" standalone="no" ?>
<gpx xmlns="http://www.topografix.com/GPX/1/1" xmlns:xsi="http://www.w3.org/2001/XMLSchema-instance" xsi:schemaLocation="http://www.topografix.com/GPX/1/1 http://www.topografix.com/GPX/1/1/gpx.xsd" version="1.1" creator="VisuGPX - https://www.visugpx.com">
  <metadata>
    <name>Dourdan et forêt de Saint-Arnoult</name>
    <desc><![CDATA[Randonnée de 17km en boucle à partir de la gare de Dourdan]]></desc>
  </metadata>
  <trk>
    <name><![CDATA[Dourdan et forêt de Saint Arnoult_R]]></name>
    <trkseg>
      <trkpt lat="48.53337" lon="2.00942">
        <ele>112.61</ele>
        <time>2015-10-18T08:05:25Z</time>
      </trkpt>
      <trkpt lat="48.53342" lon="2.00957">
        <ele>112.61</ele>
        <time>2015-10-18T08:05:33Z</time>
      </trkpt>
      <trkpt lat="48.53333" lon="2.00963">
        <ele>112.13</ele>
        <time>2015-10-18T08:05:47Z</time>
      </trkpt>
      <trkpt lat="48.53333" lon="2.00966">
        <ele>112.61</ele>
        <time>2015-10-18T08:06:04Z</time>
      </trkpt>
      <trkpt lat="48.5333" lon="2.00965">
        <ele>112.13</ele>
        <time>2015-10-18T08:06:25Z</time>
      </trkpt>
      <trkpt lat="48.53328" lon="2.00959">
        <ele>112.13</ele>
        <time>2015-10-18T08:06:42Z</time>
      </trkpt>
      <trkpt lat="48.53321" lon="2.00964">
        <ele>112.13</ele>
        <time>2015-10-18T08:06:58Z</time>
      </trkpt>
      <trkpt lat="48.53312" lon="2.00958">
        <ele>112.13</ele>
        <time>2015-10-18T08:07:15Z</time>
      </trkpt>
      <trkpt lat="48.53303" lon="2.00959">
        <ele>112.13</ele>
        <time>2015-10-18T08:07:37Z</time>
      </trkpt>
      <trkpt lat="48.53298" lon="2.00953">
        <ele>111.65</ele>
        <time>2015-10-18T08:07:54Z</time>
      </trkpt>
      <trkpt lat="48.53288" lon="2.00949">
        <ele>111.65</ele>
        <time>2015-10-18T08:08:08Z</time>
      </trkpt>
      <trkpt lat="48.53255" lon="2.0096">
        <ele>112.13</ele>
        <time>2015-10-18T08:08:25Z</time>
      </trkpt>
      <trkpt lat="48.53242" lon="2.0096">
        <ele>111.65</ele>
        <time>2015-10-18T08:08:33Z</time>
      </trkpt>
      <trkpt lat="48.53235" lon="2.00955">
        <ele>111.65</ele>
        <time>2015-10-18T08:08:38Z</time>
      </trkpt>
      <trkpt lat="48.53225" lon="2.0094">
        <ele>111.65</ele>
        <time>2015-10-18T08:08:55Z</time>
      </trkpt>
      <trkpt lat="48.53226" lon="2.00936">
        <ele>111.65</ele>
        <time>2015-10-18T08:09:06Z</time>
      </trkpt>
      <trkpt lat="48.53217" lon="2.00936">
        <ele>111.17</ele>
        <time>2015-10-18T08:09:16Z</time>
      </trkpt>
      <trkpt lat="48.53209" lon="2.00934">
        <ele>111.17</ele>
        <time>2015-10-18T08:09:23Z</time>
      </trkpt>
      <trkpt lat="48.53198" lon="2.00943">
        <ele>110.69</ele>
        <time>2015-10-18T08:09:37Z</time>
      </trkpt>
      <trkpt lat="48.53195" lon="2.00946">
        <ele>110.69</ele>
        <time>2015-10-18T08:09:39Z</time>
      </trkpt>
      <trkpt lat="48.53184" lon="2.0096">
        <ele>110.21</ele>
        <time>2015-10-18T08:09:53Z</time>
      </trkpt>
      <trkpt lat="48.53165" lon="2.00973">
        <ele>109.25</ele>
        <time>2015-10-18T08:10:10Z</time>
      </trkpt>
      <trkpt lat="48.53157" lon="2.00983">
        <ele>109.73</ele>
        <time>2015-10-18T08:10:16Z</time>
      </trkpt>
      <trkpt lat="48.53154" lon="2.00996">
        <ele>109.25</ele>
        <time>2015-10-18T08:10:23Z</time>
      </trkpt>
      <trkpt lat="48.53145" lon="2.01009">
        <ele>108.77</ele>
        <time>2015-10-18T08:10:39Z</time>
      </trkpt>
      <trkpt lat="48.53125" lon="2.01007">
        <ele>108.29</ele>
        <time>2015-10-18T08:10:56Z</time>
      </trkpt>
      <trkpt lat="48.53092" lon="2.01025">
        <ele>107.81</ele>
        <time>2015-10-18T08:11:20Z</time>
      </trkpt>
      <trkpt lat="48.5309" lon="2.01025">
        <ele>107.81</ele>
        <time>2015-10-18T08:11:21Z</time>
      </trkpt>
      <trkpt lat="48.53087" lon="2.01028">
        <ele>107.32</ele>
        <time>2015-10-18T08:11:25Z</time>
      </trkpt>
      <trkpt lat="48.53068" lon="2.01037">
        <ele>106.84</ele>
        <time>2015-10-18T08:11:43Z</time>
      </trkpt>
      <trkpt lat="48.53054" lon="2.01065">
        <ele>106.36</ele>
        <time>2015-10-18T08:12:00Z</time>
      </trkpt>
      <trkpt lat="48.53053" lon="2.01078">
        <ele>106.36</ele>
        <time>2015-10-18T08:12:15Z</time>
      </trkpt>
      <trkpt lat="48.53046" lon="2.01087">
        <ele>106.36</ele>
        <time>2015-10-18T08:12:35Z</time>
      </trkpt>
      <trkpt lat="48.5304" lon="2.01098">
        <ele>105.88</ele>
        <time>2015-10-18T08:12:50Z</time>
      </trkpt>
      <trkpt lat="48.5303" lon="2.01118">
        <ele>105.4</ele>
        <time>2015-10-18T08:13:09Z</time>
      </trkpt>
      <trkpt lat="48.53023" lon="2.01127">
        <ele>104.92</ele>
        <time>2015-10-18T08:13:20Z</time>
      </trkpt>
      <trkpt lat="48.53015" lon="2.01131">
        <ele>104.92</ele>
        <time>2015-10-18T08:13:35Z</time>
      </trkpt>
      <trkpt lat="48.53002" lon="2.01137">
        <ele>104.44</ele>
        <time>2015-10-18T08:13:45Z</time>
      </trkpt>
      <trkpt lat="48.52994" lon="2.01145">
        <ele>103.96</ele>
        <time>2015-10-18T08:13:55Z</time>
      </trkpt>
      <trkpt lat="48.52997" lon="2.01159">
        <ele>103.96</ele>
        <time>2015-10-18T08:14:03Z</time>
      </trkpt>
      <trkpt lat="48.52996" lon="2.01172">
        <ele>103.48</ele>
        <time>2015-10-18T08:14:17Z</time>
      </trkpt>
      <trkpt lat="48.5298" lon="2.01183">
        <ele>103</ele>
        <time>2015-10-18T08:14:37Z</time>
      </trkpt>
      <trkpt lat="48.52962" lon="2.01205">
        <ele>102.52</ele>
        <time>2015-10-18T08:14:58Z</time>
      </trkpt>
      <trkpt lat="48.52946" lon="2.01218">
        <ele>101.56</ele>
        <time>2015-10-18T08:15:15Z</time>
      </trkpt>
      <trkpt lat="48.52942" lon="2.01216">
        <ele>101.56</ele>
        <time>2015-10-18T08:15:35Z</time>
      </trkpt>
      <trkpt lat="48.52937" lon="2.01225">
        <ele>100.6</ele>
        <time>2015-10-18T08:15:42Z</time>
      </trkpt>
      <trkpt lat="48.52925" lon="2.01248">
        <ele>100.11</ele>
        <time>2015-10-18T08:15:58Z</time>
      </trkpt>
      <trkpt lat="48.52918" lon="2.01259">
        <ele>99.63</ele>
        <time>2015-10-18T08:16:07Z</time>
      </trkpt>
      <trkpt lat="48.52916" lon="2.01275">
        <ele>99.63</ele>
        <time>2015-10-18T08:16:25Z</time>
      </trkpt>
      <trkpt lat="48.52917" lon="2.01278">
        <ele>99.63</ele>
        <time>2015-10-18T08:16:48Z</time>
      </trkpt>
      <trkpt lat="48.52907" lon="2.0127">
        <ele>99.15</ele>
        <time>2015-10-18T08:17:02Z</time>
      </trkpt>
      <trkpt lat="48.52902" lon="2.01265">
        <ele>98.67</ele>
        <time>2015-10-18T08:17:07Z</time>
      </trkpt>
      <trkpt lat="48.52872" lon="2.0127">
        <ele>96.75</ele>
        <time>2015-10-18T08:17:29Z</time>
      </trkpt>
      <trkpt lat="48.52858" lon="2.01287">
        <ele>95.31</ele>
        <time>2015-10-18T08:17:47Z</time>
      </trkpt>
      <trkpt lat="48.52849" lon="2.01296">
        <ele>94.83</ele>
        <time>2015-10-18T08:17:57Z</time>
      </trkpt>
      <trkpt lat="48.52846" lon="2.01299">
        <ele>94.35</ele>
        <time>2015-10-18T08:18:00Z</time>
      </trkpt>
      <trkpt lat="48.52853" lon="2.0132">
        <ele>95.31</ele>
        <time>2015-10-18T08:18:18Z</time>
      </trkpt>
      <trkpt lat="48.52876" lon="2.01339">
        <ele>96.75</ele>
        <time>2015-10-18T08:18:39Z</time>
      </trkpt>
      <trkpt lat="48.52876" lon="2.01336">
        <ele>96.75</ele>
        <time>2015-10-18T08:18:54Z</time>
      </trkpt>
      <trkpt lat="48.5286" lon="2.01326">
        <ele>95.31</ele>
        <time>2015-10-18T08:19:12Z</time>
      </trkpt>
      <trkpt lat="48.52846" lon="2.01309">
        <ele>94.35</ele>
        <time>2015-10-18T08:19:29Z</time>
      </trkpt>
      <trkpt lat="48.52855" lon="2.01297">
        <ele>95.31</ele>
        <time>2015-10-18T08:19:41Z</time>
      </trkpt>
      <trkpt lat="48.52849" lon="2.01285">
        <ele>95.31</ele>
        <time>2015-10-18T08:19:56Z</time>
      </trkpt>
      <trkpt lat="48.52849" lon="2.01284">
        <ele>95.79</ele>
        <time>2015-10-18T08:19:57Z</time>
      </trkpt>
      <trkpt lat="48.5284" lon="2.01252">
        <ele>95.79</ele>
        <time>2015-10-18T08:20:14Z</time>
      </trkpt>
      <trkpt lat="48.52851" lon="2.01236">
        <ele>96.27</ele>
        <time>2015-10-18T08:20:29Z</time>
      </trkpt>
      <trkpt lat="48.5284" lon="2.01223">
        <ele>94.83</ele>
        <time>2015-10-18T08:20:41Z</time>
      </trkpt>
      <trkpt lat="48.52822" lon="2.01208">
        <ele>93.87</ele>
        <time>2015-10-18T08:20:58Z</time>
      </trkpt>
      <trkpt lat="48.52806" lon="2.01191">
        <ele>93.39</ele>
        <time>2015-10-18T08:21:14Z</time>
      </trkpt>
      <trkpt lat="48.52796" lon="2.01182">
        <ele>92.9</ele>
        <time>2015-10-18T08:21:28Z</time>
      </trkpt>
      <trkpt lat="48.52785" lon="2.01173">
        <ele>92.9</ele>
        <time>2015-10-18T08:21:41Z</time>
      </trkpt>
      <trkpt lat="48.52776" lon="2.01157">
        <ele>92.42</ele>
        <time>2015-10-18T08:21:55Z</time>
      </trkpt>
      <trkpt lat="48.52765" lon="2.01134">
        <ele>92.9</ele>
        <time>2015-10-18T08:22:12Z</time>
      </trkpt>
      <trkpt lat="48.52752" lon="2.01114">
        <ele>93.39</ele>
        <time>2015-10-18T08:22:28Z</time>
      </trkpt>
      <trkpt lat="48.52746" lon="2.01099">
        <ele>93.39</ele>
        <time>2015-10-18T08:22:41Z</time>
      </trkpt>
      <trkpt lat="48.52739" lon="2.01082">
        <ele>93.87</ele>
        <time>2015-10-18T08:22:54Z</time>
      </trkpt>
      <trkpt lat="48.52738" lon="2.0108">
        <ele>94.35</ele>
        <time>2015-10-18T08:22:56Z</time>
      </trkpt>
      <trkpt lat="48.52718" lon="2.01067">
        <ele>94.35</ele>
        <time>2015-10-18T08:23:13Z</time>
      </trkpt>
      <trkpt lat="48.52713" lon="2.01061">
        <ele>94.35</ele>
        <time>2015-10-18T08:23:18Z</time>
      </trkpt>
      <trkpt lat="48.52697" lon="2.01055">
        <ele>94.35</ele>
        <time>2015-10-18T08:23:35Z</time>
      </trkpt>
      <trkpt lat="48.52681" lon="2.01046">
        <ele>94.35</ele>
        <time>2015-10-18T08:23:49Z</time>
      </trkpt>
      <trkpt lat="48.52677" lon="2.01043">
        <ele>95.31</ele>
        <time>2015-10-18T08:23:53Z</time>
      </trkpt>
      <trkpt lat="48.52663" lon="2.01036">
        <ele>95.79</ele>
        <time>2015-10-18T08:24:08Z</time>
      </trkpt>
      <trkpt lat="48.52661" lon="2.01031">
        <ele>95.79</ele>
        <time>2015-10-18T08:24:15Z</time>
      </trkpt>
      <trkpt lat="48.52648" lon="2.0102">
        <ele>96.27</ele>
        <time>2015-10-18T08:24:30Z</time>
      </trkpt>
      <trkpt lat="48.52641" lon="2.01015">
        <ele>96.27</ele>
        <time>2015-10-18T08:24:36Z</time>
      </trkpt>
      <trkpt lat="48.52623" lon="2.01003">
        <ele>96.75</ele>
        <time>2015-10-18T08:24:52Z</time>
      </trkpt>
      <trkpt lat="48.52615" lon="2.00997">
        <ele>97.71</ele>
        <time>2015-10-18T08:25:05Z</time>
      </trkpt>
      <trkpt lat="48.52598" lon="2.00989">
        <ele>97.71</ele>
        <time>2015-10-18T08:25:20Z</time>
      </trkpt>
      <trkpt lat="48.52583" lon="2.00976">
        <ele>99.15</ele>
        <time>2015-10-18T08:25:37Z</time>
      </trkpt>
      <trkpt lat="48.52568" lon="2.00968">
        <ele>100.6</ele>
        <time>2015-10-18T08:25:53Z</time>
      </trkpt>
      <trkpt lat="48.52552" lon="2.00959">
        <ele>101.08</ele>
        <time>2015-10-18T08:26:08Z</time>
      </trkpt>
      <trkpt lat="48.52535" lon="2.0095">
        <ele>103</ele>
        <time>2015-10-18T08:26:32Z</time>
      </trkpt>
      <trkpt lat="48.52517" lon="2.0094">
        <ele>103</ele>
        <time>2015-10-18T08:26:46Z</time>
      </trkpt>
      <trkpt lat="48.52506" lon="2.00923">
        <ele>103.48</ele>
        <time>2015-10-18T08:27:02Z</time>
      </trkpt>
      <trkpt lat="48.52496" lon="2.00917">
        <ele>103.48</ele>
        <time>2015-10-18T08:27:14Z</time>
      </trkpt>
      <trkpt lat="48.52477" lon="2.00903">
        <ele>103.96</ele>
        <time>2015-10-18T08:27:31Z</time>
      </trkpt>
      <trkpt lat="48.52469" lon="2.00898">
        <ele>104.44</ele>
        <time>2015-10-18T08:27:44Z</time>
      </trkpt>
      <trkpt lat="48.52452" lon="2.00886">
        <ele>105.4</ele>
        <time>2015-10-18T08:27:58Z</time>
      </trkpt>
      <trkpt lat="48.52441" lon="2.00879">
        <ele>106.36</ele>
        <time>2015-10-18T08:28:12Z</time>
      </trkpt>
      <trkpt lat="48.52427" lon="2.00868">
        <ele>106.84</ele>
        <time>2015-10-18T08:28:24Z</time>
      </trkpt>
      <trkpt lat="48.52423" lon="2.00868">
        <ele>106.84</ele>
        <time>2015-10-18T08:28:29Z</time>
      </trkpt>
      <trkpt lat="48.52408" lon="2.00856">
        <ele>107.81</ele>
        <time>2015-10-18T08:28:45Z</time>
      </trkpt>
      <trkpt lat="48.52394" lon="2.00846">
        <ele>108.29</ele>
        <time>2015-10-18T08:28:59Z</time>
      </trkpt>
      <trkpt lat="48.52383" lon="2.00839">
        <ele>108.29</ele>
        <time>2015-10-18T08:29:08Z</time>
      </trkpt>
      <trkpt lat="48.52371" lon="2.00834">
        <ele>109.25</ele>
        <time>2015-10-18T08:29:21Z</time>
      </trkpt>
      <trkpt lat="48.52359" lon="2.00819">
        <ele>109.73</ele>
        <time>2015-10-18T08:29:37Z</time>
      </trkpt>
      <trkpt lat="48.52352" lon="2.00816">
        <ele>109.73</ele>
        <time>2015-10-18T08:29:42Z</time>
      </trkpt>
      <trkpt lat="48.52333" lon="2.00802">
        <ele>110.69</ele>
        <time>2015-10-18T08:29:59Z</time>
      </trkpt>
      <trkpt lat="48.52315" lon="2.00794">
        <ele>112.13</ele>
        <time>2015-10-18T08:30:13Z</time>
      </trkpt>
      <trkpt lat="48.5231" lon="2.00797">
        <ele>113.09</ele>
        <time>2015-10-18T08:30:28Z</time>
      </trkpt>
      <trkpt lat="48.52302" lon="2.0079">
        <ele>113.09</ele>
        <time>2015-10-18T08:30:47Z</time>
      </trkpt>
      <trkpt lat="48.52297" lon="2.00775">
        <ele>112.61</ele>
        <time>2015-10-18T08:31:01Z</time>
      </trkpt>
      <trkpt lat="48.52288" lon="2.00768">
        <ele>112.61</ele>
        <time>2015-10-18T08:31:10Z</time>
      </trkpt>
      <trkpt lat="48.52276" lon="2.00754">
        <ele>113.57</ele>
        <time>2015-10-18T08:31:26Z</time>
      </trkpt>
      <trkpt lat="48.5226" lon="2.00739">
        <ele>114.05</ele>
        <time>2015-10-18T08:31:43Z</time>
      </trkpt>
      <trkpt lat="48.52246" lon="2.00718">
        <ele>115.5</ele>
        <time>2015-10-18T08:32:00Z</time>
      </trkpt>
      <trkpt lat="48.52235" lon="2.00706">
        <ele>116.46</ele>
        <time>2015-10-18T08:32:12Z</time>
      </trkpt>
      <trkpt lat="48.52221" lon="2.00689">
        <ele>116.46</ele>
        <time>2015-10-18T08:32:29Z</time>
      </trkpt>
      <trkpt lat="48.5221" lon="2.00682">
        <ele>117.42</ele>
        <time>2015-10-18T08:32:43Z</time>
      </trkpt>
      <trkpt lat="48.52198" lon="2.00672">
        <ele>117.9</ele>
        <time>2015-10-18T08:33:02Z</time>
      </trkpt>
      <trkpt lat="48.52196" lon="2.00678">
        <ele>117.9</ele>
        <time>2015-10-18T08:33:22Z</time>
      </trkpt>
      <trkpt lat="48.522" lon="2.00684">
        <ele>117.42</ele>
        <time>2015-10-18T08:33:46Z</time>
      </trkpt>
      <trkpt lat="48.52201" lon="2.00684">
        <ele>117.9</ele>
        <time>2015-10-18T08:34:10Z</time>
      </trkpt>
      <trkpt lat="48.52197" lon="2.00681">
        <ele>117.9</ele>
        <time>2015-10-18T08:34:30Z</time>
      </trkpt>
      <trkpt lat="48.52197" lon="2.00684">
        <ele>117.9</ele>
        <time>2015-10-18T08:35:00Z</time>
      </trkpt>
      <trkpt lat="48.52204" lon="2.00683">
        <ele>117.9</ele>
        <time>2015-10-18T08:35:29Z</time>
      </trkpt>
      <trkpt lat="48.52205" lon="2.00683">
        <ele>117.9</ele>
        <time>2015-10-18T08:35:59Z</time>
      </trkpt>
      <trkpt lat="48.52205" lon="2.00685">
        <ele>118.38</ele>
        <time>2015-10-18T08:36:31Z</time>
      </trkpt>
      <trkpt lat="48.52205" lon="2.0068">
        <ele>118.38</ele>
        <time>2015-10-18T08:36:59Z</time>
      </trkpt>
      <trkpt lat="48.52192" lon="2.00671">
        <ele>118.86</ele>
        <time>2015-10-18T08:37:26Z</time>
      </trkpt>
      <trkpt lat="48.52189" lon="2.00666">
        <ele>119.34</ele>
        <time>2015-10-18T08:37:44Z</time>
      </trkpt>
      <trkpt lat="48.52184" lon="2.00665">
        <ele>119.34</ele>
        <time>2015-10-18T08:38:06Z</time>
      </trkpt>
      <trkpt lat="48.52165" lon="2.00652">
        <ele>120.78</ele>
        <time>2015-10-18T08:38:26Z</time>
      </trkpt>
      <trkpt lat="48.52151" lon="2.00644">
        <ele>122.71</ele>
        <time>2015-10-18T08:38:42Z</time>
      </trkpt>
      <trkpt lat="48.52137" lon="2.00638">
        <ele>124.63</ele>
        <time>2015-10-18T08:39:01Z</time>
      </trkpt>
      <trkpt lat="48.5212" lon="2.00631">
        <ele>126.07</ele>
        <time>2015-10-18T08:39:21Z</time>
      </trkpt>
      <trkpt lat="48.52106" lon="2.00624">
        <ele>125.59</ele>
        <time>2015-10-18T08:39:36Z</time>
      </trkpt>
      <trkpt lat="48.5209" lon="2.00607">
        <ele>125.59</ele>
        <time>2015-10-18T08:39:50Z</time>
      </trkpt>
      <trkpt lat="48.5208" lon="2.00599">
        <ele>125.59</ele>
        <time>2015-10-18T08:40:07Z</time>
      </trkpt>
      <trkpt lat="48.52067" lon="2.0058">
        <ele>124.63</ele>
        <time>2015-10-18T08:40:24Z</time>
      </trkpt>
      <trkpt lat="48.52046" lon="2.00567">
        <ele>123.67</ele>
        <time>2015-10-18T08:40:44Z</time>
      </trkpt>
      <trkpt lat="48.52026" lon="2.00553">
        <ele>123.19</ele>
        <time>2015-10-18T08:41:02Z</time>
      </trkpt>
      <trkpt lat="48.52014" lon="2.0054">
        <ele>122.71</ele>
        <time>2015-10-18T08:41:21Z</time>
      </trkpt>
      <trkpt lat="48.52002" lon="2.00535">
        <ele>122.22</ele>
        <time>2015-10-18T08:41:41Z</time>
      </trkpt>
      <trkpt lat="48.51986" lon="2.00529">
        <ele>121.74</ele>
        <time>2015-10-18T08:42:01Z</time>
      </trkpt>
      <trkpt lat="48.5197" lon="2.00524">
        <ele>121.26</ele>
        <time>2015-10-18T08:42:17Z</time>
      </trkpt>
      <trkpt lat="48.51965" lon="2.00522">
        <ele>121.26</ele>
        <time>2015-10-18T08:42:23Z</time>
      </trkpt>
      <trkpt lat="48.51944" lon="2.00517">
        <ele>120.78</ele>
        <time>2015-10-18T08:42:41Z</time>
      </trkpt>
      <trkpt lat="48.51934" lon="2.00516">
        <ele>120.78</ele>
        <time>2015-10-18T08:42:50Z</time>
      </trkpt>
      <trkpt lat="48.51918" lon="2.00517">
        <ele>120.3</ele>
        <time>2015-10-18T08:43:03Z</time>
      </trkpt>
      <trkpt lat="48.51901" lon="2.00522">
        <ele>120.3</ele>
        <time>2015-10-18T08:43:17Z</time>
      </trkpt>
      <trkpt lat="48.51885" lon="2.00528">
        <ele>119.82</ele>
        <time>2015-10-18T08:43:33Z</time>
      </trkpt>
      <trkpt lat="48.51867" lon="2.00534">
        <ele>118.38</ele>
        <time>2015-10-18T08:43:51Z</time>
      </trkpt>
      <trkpt lat="48.51849" lon="2.00546">
        <ele>117.42</ele>
        <time>2015-10-18T08:44:07Z</time>
      </trkpt>
      <trkpt lat="48.5184" lon="2.0055">
        <ele>116.94</ele>
        <time>2015-10-18T08:44:15Z</time>
      </trkpt>
      <trkpt lat="48.51823" lon="2.00561">
        <ele>115.98</ele>
        <time>2015-10-18T08:44:33Z</time>
      </trkpt>
      <trkpt lat="48.51807" lon="2.00574">
        <ele>115.5</ele>
        <time>2015-10-18T08:44:51Z</time>
      </trkpt>
      <trkpt lat="48.51791" lon="2.00584">
        <ele>113.57</ele>
        <time>2015-10-18T08:45:11Z</time>
      </trkpt>
      <trkpt lat="48.51772" lon="2.0058">
        <ele>110.69</ele>
        <time>2015-10-18T08:45:31Z</time>
      </trkpt>
      <trkpt lat="48.51758" lon="2.00575">
        <ele>108.77</ele>
        <time>2015-10-18T08:45:48Z</time>
      </trkpt>
      <trkpt lat="48.5174" lon="2.00573">
        <ele>106.84</ele>
        <time>2015-10-18T08:46:05Z</time>
      </trkpt>
      <trkpt lat="48.5172" lon="2.00568">
        <ele>105.4</ele>
        <time>2015-10-18T08:46:24Z</time>
      </trkpt>
      <trkpt lat="48.51706" lon="2.0056">
        <ele>103.96</ele>
        <time>2015-10-18T08:46:45Z</time>
      </trkpt>
      <trkpt lat="48.51686" lon="2.00551">
        <ele>102.52</ele>
        <time>2015-10-18T08:47:03Z</time>
      </trkpt>
      <trkpt lat="48.51665" lon="2.00546">
        <ele>101.56</ele>
        <time>2015-10-18T08:47:23Z</time>
      </trkpt>
      <trkpt lat="48.5165" lon="2.00546">
        <ele>101.56</ele>
        <time>2015-10-18T08:47:41Z</time>
      </trkpt>
      <trkpt lat="48.51641" lon="2.00562">
        <ele>101.56</ele>
        <time>2015-10-18T08:47:58Z</time>
      </trkpt>
      <trkpt lat="48.51633" lon="2.00575">
        <ele>101.56</ele>
        <time>2015-10-18T08:48:12Z</time>
      </trkpt>
      <trkpt lat="48.51627" lon="2.0059">
        <ele>101.56</ele>
        <time>2015-10-18T08:48:28Z</time>
      </trkpt>
      <trkpt lat="48.51614" lon="2.00602">
        <ele>102.04</ele>
        <time>2015-10-18T08:48:44Z</time>
      </trkpt>
      <trkpt lat="48.51602" lon="2.00622">
        <ele>102.52</ele>
        <time>2015-10-18T08:49:02Z</time>
      </trkpt>
      <trkpt lat="48.51591" lon="2.00644">
        <ele>103</ele>
        <time>2015-10-18T08:49:23Z</time>
      </trkpt>
      <trkpt lat="48.51582" lon="2.00661">
        <ele>103</ele>
        <time>2015-10-18T08:49:39Z</time>
      </trkpt>
      <trkpt lat="48.51568" lon="2.00677">
        <ele>101.56</ele>
        <time>2015-10-18T08:49:56Z</time>
      </trkpt>
      <trkpt lat="48.51559" lon="2.00699">
        <ele>100.6</ele>
        <time>2015-10-18T08:50:15Z</time>
      </trkpt>
      <trkpt lat="48.51547" lon="2.00721">
        <ele>100.11</ele>
        <time>2015-10-18T08:50:36Z</time>
      </trkpt>
      <trkpt lat="48.51537" lon="2.00744">
        <ele>99.15</ele>
        <time>2015-10-18T08:50:55Z</time>
      </trkpt>
      <trkpt lat="48.51526" lon="2.00773">
        <ele>98.67</ele>
        <time>2015-10-18T08:51:12Z</time>
      </trkpt>
      <trkpt lat="48.51521" lon="2.00787">
        <ele>98.67</ele>
        <time>2015-10-18T08:51:29Z</time>
      </trkpt>
      <trkpt lat="48.51512" lon="2.0081">
        <ele>98.19</ele>
        <time>2015-10-18T08:51:50Z</time>
      </trkpt>
      <trkpt lat="48.51497" lon="2.00835">
        <ele>98.67</ele>
        <time>2015-10-18T08:52:10Z</time>
      </trkpt>
      <trkpt lat="48.51486" lon="2.00854">
        <ele>98.67</ele>
        <time>2015-10-18T08:52:27Z</time>
      </trkpt>
      <trkpt lat="48.51473" lon="2.00864">
        <ele>100.11</ele>
        <time>2015-10-18T08:52:44Z</time>
      </trkpt>
      <trkpt lat="48.51472" lon="2.00858">
        <ele>99.63</ele>
        <time>2015-10-18T08:53:05Z</time>
      </trkpt>
      <trkpt lat="48.51468" lon="2.00831">
        <ele>99.63</ele>
        <time>2015-10-18T08:53:26Z</time>
      </trkpt>
      <trkpt lat="48.51462" lon="2.00804">
        <ele>99.15</ele>
        <time>2015-10-18T08:53:44Z</time>
      </trkpt>
      <trkpt lat="48.51453" lon="2.00776">
        <ele>99.15</ele>
        <time>2015-10-18T08:54:05Z</time>
      </trkpt>
      <trkpt lat="48.51449" lon="2.00751">
        <ele>99.63</ele>
        <time>2015-10-18T08:54:23Z</time>
      </trkpt>
      <trkpt lat="48.51438" lon="2.00728">
        <ele>100.11</ele>
        <time>2015-10-18T08:54:41Z</time>
      </trkpt>
      <trkpt lat="48.51432" lon="2.0071">
        <ele>100.11</ele>
        <time>2015-10-18T08:54:58Z</time>
      </trkpt>
      <trkpt lat="48.51422" lon="2.00684">
        <ele>100.6</ele>
        <time>2015-10-18T08:55:18Z</time>
      </trkpt>
      <trkpt lat="48.5141" lon="2.00663">
        <ele>101.08</ele>
        <time>2015-10-18T08:55:37Z</time>
      </trkpt>
      <trkpt lat="48.51411" lon="2.00647">
        <ele>101.08</ele>
        <time>2015-10-18T08:55:58Z</time>
      </trkpt>
      <trkpt lat="48.51414" lon="2.00647">
        <ele>100.6</ele>
        <time>2015-10-18T08:56:21Z</time>
      </trkpt>
      <trkpt lat="48.51412" lon="2.0065">
        <ele>100.6</ele>
        <time>2015-10-18T08:56:47Z</time>
      </trkpt>
      <trkpt lat="48.51411" lon="2.00649">
        <ele>100.6</ele>
        <time>2015-10-18T08:57:11Z</time>
      </trkpt>
      <trkpt lat="48.51418" lon="2.00646">
        <ele>100.6</ele>
        <time>2015-10-18T08:57:41Z</time>
      </trkpt>
      <trkpt lat="48.51424" lon="2.00649">
        <ele>100.6</ele>
        <time>2015-10-18T08:58:07Z</time>
      </trkpt>
      <trkpt lat="48.51407" lon="2.00631">
        <ele>100.6</ele>
        <time>2015-10-18T08:58:26Z</time>
      </trkpt>
      <trkpt lat="48.51401" lon="2.00606">
        <ele>100.6</ele>
        <time>2015-10-18T08:58:47Z</time>
      </trkpt>
      <trkpt lat="48.51396" lon="2.0058">
        <ele>101.08</ele>
        <time>2015-10-18T08:59:05Z</time>
      </trkpt>
      <trkpt lat="48.51391" lon="2.00563">
        <ele>102.04</ele>
        <time>2015-10-18T08:59:23Z</time>
      </trkpt>
      <trkpt lat="48.51388" lon="2.00533">
        <ele>102.04</ele>
        <time>2015-10-18T08:59:45Z</time>
      </trkpt>
      <trkpt lat="48.51384" lon="2.00508">
        <ele>102.04</ele>
        <time>2015-10-18T09:00:01Z</time>
      </trkpt>
      <trkpt lat="48.51382" lon="2.0048">
        <ele>101.56</ele>
        <time>2015-10-18T09:00:18Z</time>
      </trkpt>
      <trkpt lat="48.51381" lon="2.00456">
        <ele>102.04</ele>
        <time>2015-10-18T09:00:35Z</time>
      </trkpt>
      <trkpt lat="48.5138" lon="2.00431">
        <ele>102.04</ele>
        <time>2015-10-18T09:00:49Z</time>
      </trkpt>
      <trkpt lat="48.51381" lon="2.00407">
        <ele>102.04</ele>
        <time>2015-10-18T09:01:07Z</time>
      </trkpt>
      <trkpt lat="48.51384" lon="2.00382">
        <ele>100.6</ele>
        <time>2015-10-18T09:01:23Z</time>
      </trkpt>
      <trkpt lat="48.51387" lon="2.0036">
        <ele>100.6</ele>
        <time>2015-10-18T09:01:42Z</time>
      </trkpt>
      <trkpt lat="48.51383" lon="2.00324">
        <ele>100.11</ele>
        <time>2015-10-18T09:02:00Z</time>
      </trkpt>
      <trkpt lat="48.51376" lon="2.00302">
        <ele>99.15</ele>
        <time>2015-10-18T09:02:18Z</time>
      </trkpt>
      <trkpt lat="48.51368" lon="2.00278">
        <ele>99.15</ele>
        <time>2015-10-18T09:02:34Z</time>
      </trkpt>
      <trkpt lat="48.51359" lon="2.00251">
        <ele>99.15</ele>
        <time>2015-10-18T09:02:52Z</time>
      </trkpt>
      <trkpt lat="48.5135" lon="2.00228">
        <ele>99.15</ele>
        <time>2015-10-18T09:03:09Z</time>
      </trkpt>
      <trkpt lat="48.5134" lon="2.00209">
        <ele>99.15</ele>
        <time>2015-10-18T09:03:27Z</time>
      </trkpt>
      <trkpt lat="48.51337" lon="2.00186">
        <ele>99.63</ele>
        <time>2015-10-18T09:03:43Z</time>
      </trkpt>
      <trkpt lat="48.51329" lon="2.0016">
        <ele>100.11</ele>
        <time>2015-10-18T09:04:02Z</time>
      </trkpt>
      <trkpt lat="48.51321" lon="2.0013">
        <ele>100.6</ele>
        <time>2015-10-18T09:04:23Z</time>
      </trkpt>
      <trkpt lat="48.51312" lon="2.00109">
        <ele>100.6</ele>
        <time>2015-10-18T09:04:41Z</time>
      </trkpt>
      <trkpt lat="48.51307" lon="2.00077">
        <ele>101.08</ele>
        <time>2015-10-18T09:05:01Z</time>
      </trkpt>
      <trkpt lat="48.51302" lon="2.00042">
        <ele>100.6</ele>
        <time>2015-10-18T09:05:21Z</time>
      </trkpt>
      <trkpt lat="48.51301" lon="2.00016">
        <ele>100.6</ele>
        <time>2015-10-18T09:05:39Z</time>
      </trkpt>
      <trkpt lat="48.51293" lon="1.99985">
        <ele>100.6</ele>
        <time>2015-10-18T09:06:01Z</time>
      </trkpt>
      <trkpt lat="48.51286" lon="1.99959">
        <ele>100.6</ele>
        <time>2015-10-18T09:06:19Z</time>
      </trkpt>
      <trkpt lat="48.51283" lon="1.99936">
        <ele>101.08</ele>
        <time>2015-10-18T09:06:36Z</time>
      </trkpt>
      <trkpt lat="48.51278" lon="1.99912">
        <ele>101.08</ele>
        <time>2015-10-18T09:06:51Z</time>
      </trkpt>
      <trkpt lat="48.51273" lon="1.99892">
        <ele>101.56</ele>
        <time>2015-10-18T09:07:08Z</time>
      </trkpt>
      <trkpt lat="48.51267" lon="1.99868">
        <ele>101.08</ele>
        <time>2015-10-18T09:07:25Z</time>
      </trkpt>
      <trkpt lat="48.51263" lon="1.99841">
        <ele>101.56</ele>
        <time>2015-10-18T09:07:40Z</time>
      </trkpt>
      <trkpt lat="48.51257" lon="1.99815">
        <ele>101.56</ele>
        <time>2015-10-18T09:07:58Z</time>
      </trkpt>
      <trkpt lat="48.51255" lon="1.99788">
        <ele>102.04</ele>
        <time>2015-10-18T09:08:17Z</time>
      </trkpt>
      <trkpt lat="48.51249" lon="1.9976">
        <ele>102.04</ele>
        <time>2015-10-18T09:08:36Z</time>
      </trkpt>
      <trkpt lat="48.51242" lon="1.99727">
        <ele>103</ele>
        <time>2015-10-18T09:08:55Z</time>
      </trkpt>
      <trkpt lat="48.51239" lon="1.99703">
        <ele>103</ele>
        <time>2015-10-18T09:09:12Z</time>
      </trkpt>
      <trkpt lat="48.51237" lon="1.99677">
        <ele>103.48</ele>
        <time>2015-10-18T09:09:28Z</time>
      </trkpt>
      <trkpt lat="48.51233" lon="1.9965">
        <ele>104.44</ele>
        <time>2015-10-18T09:09:45Z</time>
      </trkpt>
      <trkpt lat="48.51232" lon="1.99641">
        <ele>104.44</ele>
        <time>2015-10-18T09:09:52Z</time>
      </trkpt>
      <trkpt lat="48.5123" lon="1.99619">
        <ele>104.92</ele>
        <time>2015-10-18T09:10:06Z</time>
      </trkpt>
      <trkpt lat="48.5123" lon="1.996">
        <ele>105.4</ele>
        <time>2015-10-18T09:10:19Z</time>
      </trkpt>
      <trkpt lat="48.51229" lon="1.99591">
        <ele>105.4</ele>
        <time>2015-10-18T09:10:24Z</time>
      </trkpt>
      <trkpt lat="48.51228" lon="1.99571">
        <ele>106.84</ele>
        <time>2015-10-18T09:10:38Z</time>
      </trkpt>
      <trkpt lat="48.51226" lon="1.99545">
        <ele>107.32</ele>
        <time>2015-10-18T09:10:54Z</time>
      </trkpt>
      <trkpt lat="48.51223" lon="1.99541">
        <ele>107.32</ele>
        <time>2015-10-18T09:11:09Z</time>
      </trkpt>
      <trkpt lat="48.51214" lon="1.99535">
        <ele>107.32</ele>
        <time>2015-10-18T09:11:18Z</time>
      </trkpt>
      <trkpt lat="48.51201" lon="1.99522">
        <ele>107.81</ele>
        <time>2015-10-18T09:11:33Z</time>
      </trkpt>
      <trkpt lat="48.51182" lon="1.99512">
        <ele>107.81</ele>
        <time>2015-10-18T09:11:50Z</time>
      </trkpt>
      <trkpt lat="48.51177" lon="1.99506">
        <ele>107.81</ele>
        <time>2015-10-18T09:11:57Z</time>
      </trkpt>
      <trkpt lat="48.51167" lon="1.99498">
        <ele>108.29</ele>
        <time>2015-10-18T09:12:08Z</time>
      </trkpt>
      <trkpt lat="48.51153" lon="1.99488">
        <ele>108.77</ele>
        <time>2015-10-18T09:12:23Z</time>
      </trkpt>
      <trkpt lat="48.51148" lon="1.99485">
        <ele>108.77</ele>
        <time>2015-10-18T09:12:27Z</time>
      </trkpt>
      <trkpt lat="48.51138" lon="1.99474">
        <ele>108.77</ele>
        <time>2015-10-18T09:12:41Z</time>
      </trkpt>
      <trkpt lat="48.51133" lon="1.9947">
        <ele>109.25</ele>
        <time>2015-10-18T09:12:46Z</time>
      </trkpt>
      <trkpt lat="48.51128" lon="1.99466">
        <ele>109.25</ele>
        <time>2015-10-18T09:12:51Z</time>
      </trkpt>
      <trkpt lat="48.51112" lon="1.99453">
        <ele>109.25</ele>
        <time>2015-10-18T09:13:08Z</time>
      </trkpt>
      <trkpt lat="48.51102" lon="1.99445">
        <ele>109.73</ele>
        <time>2015-10-18T09:13:17Z</time>
      </trkpt>
      <trkpt lat="48.5109" lon="1.99433">
        <ele>109.73</ele>
        <time>2015-10-18T09:13:31Z</time>
      </trkpt>
      <trkpt lat="48.51075" lon="1.9942">
        <ele>110.21</ele>
        <time>2015-10-18T09:13:46Z</time>
      </trkpt>
      <trkpt lat="48.51063" lon="1.99408">
        <ele>110.21</ele>
        <time>2015-10-18T09:14:00Z</time>
      </trkpt>
      <trkpt lat="48.51047" lon="1.99396">
        <ele>110.69</ele>
        <time>2015-10-18T09:14:16Z</time>
      </trkpt>
      <trkpt lat="48.51044" lon="1.9939">
        <ele>110.69</ele>
        <time>2015-10-18T09:14:30Z</time>
      </trkpt>
      <trkpt lat="48.51044" lon="1.99381">
        <ele>111.17</ele>
        <time>2015-10-18T09:14:50Z</time>
      </trkpt>
      <trkpt lat="48.51037" lon="1.99366">
        <ele>111.65</ele>
        <time>2015-10-18T09:15:03Z</time>
      </trkpt>
      <trkpt lat="48.51028" lon="1.99353">
        <ele>112.61</ele>
        <time>2015-10-18T09:15:17Z</time>
      </trkpt>
      <trkpt lat="48.51016" lon="1.99344">
        <ele>112.61</ele>
        <time>2015-10-18T09:15:28Z</time>
      </trkpt>
      <trkpt lat="48.51001" lon="1.99332">
        <ele>112.61</ele>
        <time>2015-10-18T09:15:44Z</time>
      </trkpt>
      <trkpt lat="48.50987" lon="1.99323">
        <ele>113.57</ele>
        <time>2015-10-18T09:15:58Z</time>
      </trkpt>
      <trkpt lat="48.50971" lon="1.9931">
        <ele>113.57</ele>
        <time>2015-10-18T09:16:14Z</time>
      </trkpt>
      <trkpt lat="48.50953" lon="1.993">
        <ele>114.05</ele>
        <time>2015-10-18T09:16:33Z</time>
      </trkpt>
      <trkpt lat="48.5094" lon="1.99304">
        <ele>113.57</ele>
        <time>2015-10-18T09:16:49Z</time>
      </trkpt>
      <trkpt lat="48.50929" lon="1.99297">
        <ele>113.09</ele>
        <time>2015-10-18T09:17:03Z</time>
      </trkpt>
      <trkpt lat="48.50925" lon="1.99294">
        <ele>113.09</ele>
        <time>2015-10-18T09:17:07Z</time>
      </trkpt>
      <trkpt lat="48.50909" lon="1.99285">
        <ele>114.05</ele>
        <time>2015-10-18T09:17:24Z</time>
      </trkpt>
      <trkpt lat="48.509" lon="1.99276">
        <ele>114.53</ele>
        <time>2015-10-18T09:17:35Z</time>
      </trkpt>
      <trkpt lat="48.50887" lon="1.99266">
        <ele>115.01</ele>
        <time>2015-10-18T09:17:50Z</time>
      </trkpt>
      <trkpt lat="48.50884" lon="1.99263">
        <ele>115.01</ele>
        <time>2015-10-18T09:17:55Z</time>
      </trkpt>
      <trkpt lat="48.50874" lon="1.99259">
        <ele>115.5</ele>
        <time>2015-10-18T09:18:05Z</time>
      </trkpt>
      <trkpt lat="48.5086" lon="1.9925">
        <ele>115.98</ele>
        <time>2015-10-18T09:18:20Z</time>
      </trkpt>
      <trkpt lat="48.50846" lon="1.99238">
        <ele>116.46</ele>
        <time>2015-10-18T09:18:36Z</time>
      </trkpt>
      <trkpt lat="48.50832" lon="1.99226">
        <ele>117.42</ele>
        <time>2015-10-18T09:18:52Z</time>
      </trkpt>
      <trkpt lat="48.50818" lon="1.9921">
        <ele>117.9</ele>
        <time>2015-10-18T09:19:08Z</time>
      </trkpt>
      <trkpt lat="48.50816" lon="1.99207">
        <ele>117.9</ele>
        <time>2015-10-18T09:19:10Z</time>
      </trkpt>
      <trkpt lat="48.50806" lon="1.99195">
        <ele>118.38</ele>
        <time>2015-10-18T09:19:25Z</time>
      </trkpt>
      <trkpt lat="48.50791" lon="1.99176">
        <ele>119.34</ele>
        <time>2015-10-18T09:19:42Z</time>
      </trkpt>
      <trkpt lat="48.50778" lon="1.99164">
        <ele>119.82</ele>
        <time>2015-10-18T09:19:57Z</time>
      </trkpt>
      <trkpt lat="48.50767" lon="1.99149">
        <ele>119.82</ele>
        <time>2015-10-18T09:20:12Z</time>
      </trkpt>
      <trkpt lat="48.50755" lon="1.99141">
        <ele>120.3</ele>
        <time>2015-10-18T09:20:24Z</time>
      </trkpt>
      <trkpt lat="48.50748" lon="1.99138">
        <ele>120.3</ele>
        <time>2015-10-18T09:20:31Z</time>
      </trkpt>
      <trkpt lat="48.50741" lon="1.99136">
        <ele>120.3</ele>
        <time>2015-10-18T09:20:37Z</time>
      </trkpt>
      <trkpt lat="48.5073" lon="1.99136">
        <ele>120.78</ele>
        <time>2015-10-18T09:20:51Z</time>
      </trkpt>
      <trkpt lat="48.50719" lon="1.99135">
        <ele>121.26</ele>
        <time>2015-10-18T09:21:05Z</time>
      </trkpt>
      <trkpt lat="48.50706" lon="1.99135">
        <ele>121.74</ele>
        <time>2015-10-18T09:21:19Z</time>
      </trkpt>
      <trkpt lat="48.50691" lon="1.99135">
        <ele>122.22</ele>
        <time>2015-10-18T09:21:34Z</time>
      </trkpt>
      <trkpt lat="48.50673" lon="1.99137">
        <ele>122.71</ele>
        <time>2015-10-18T09:21:50Z</time>
      </trkpt>
      <trkpt lat="48.50672" lon="1.99137">
        <ele>123.19</ele>
        <time>2015-10-18T09:21:52Z</time>
      </trkpt>
      <trkpt lat="48.50654" lon="1.99139">
        <ele>123.67</ele>
        <time>2015-10-18T09:22:09Z</time>
      </trkpt>
      <trkpt lat="48.50637" lon="1.99135">
        <ele>124.15</ele>
        <time>2015-10-18T09:22:25Z</time>
      </trkpt>
      <trkpt lat="48.50633" lon="1.99135">
        <ele>124.63</ele>
        <time>2015-10-18T09:22:30Z</time>
      </trkpt>
      <trkpt lat="48.5063" lon="1.99138">
        <ele>124.63</ele>
        <time>2015-10-18T09:22:34Z</time>
      </trkpt>
      <trkpt lat="48.50625" lon="1.99145">
        <ele>124.63</ele>
        <time>2015-10-18T09:22:47Z</time>
      </trkpt>
      <trkpt lat="48.50628" lon="1.99137">
        <ele>124.63</ele>
        <time>2015-10-18T09:23:02Z</time>
      </trkpt>
      <trkpt lat="48.50622" lon="1.99124">
        <ele>125.59</ele>
        <time>2015-10-18T09:23:16Z</time>
      </trkpt>
      <trkpt lat="48.50626" lon="1.99126">
        <ele>125.11</ele>
        <time>2015-10-18T09:23:33Z</time>
      </trkpt>
      <trkpt lat="48.50621" lon="1.99123">
        <ele>125.11</ele>
        <time>2015-10-18T09:23:47Z</time>
      </trkpt>
      <trkpt lat="48.50623" lon="1.99124">
        <ele>125.11</ele>
        <time>2015-10-18T09:24:05Z</time>
      </trkpt>
      <trkpt lat="48.50625" lon="1.9912">
        <ele>125.11</ele>
        <time>2015-10-18T09:24:24Z</time>
      </trkpt>
      <trkpt lat="48.50629" lon="1.9912">
        <ele>125.11</ele>
        <time>2015-10-18T09:24:45Z</time>
      </trkpt>
      <trkpt lat="48.50639" lon="1.99119">
        <ele>125.11</ele>
        <time>2015-10-18T09:24:57Z</time>
      </trkpt>
      <trkpt lat="48.50646" lon="1.99097">
        <ele>125.11</ele>
        <time>2015-10-18T09:25:12Z</time>
      </trkpt>
      <trkpt lat="48.50654" lon="1.99075">
        <ele>125.59</ele>
        <time>2015-10-18T09:25:28Z</time>
      </trkpt>
      <trkpt lat="48.50655" lon="1.99049">
        <ele>126.55</ele>
        <time>2015-10-18T09:25:44Z</time>
      </trkpt>
      <trkpt lat="48.50657" lon="1.99024">
        <ele>126.55</ele>
        <time>2015-10-18T09:26:00Z</time>
      </trkpt>
      <trkpt lat="48.50659" lon="1.99004">
        <ele>126.55</ele>
        <time>2015-10-18T09:26:15Z</time>
      </trkpt>
      <trkpt lat="48.50664" lon="1.98975">
        <ele>126.55</ele>
        <time>2015-10-18T09:26:33Z</time>
      </trkpt>
      <trkpt lat="48.50667" lon="1.98956">
        <ele>126.55</ele>
        <time>2015-10-18T09:26:50Z</time>
      </trkpt>
      <trkpt lat="48.50669" lon="1.98935">
        <ele>126.55</ele>
        <time>2015-10-18T09:27:05Z</time>
      </trkpt>
      <trkpt lat="48.50665" lon="1.98906">
        <ele>126.07</ele>
        <time>2015-10-18T09:27:22Z</time>
      </trkpt>
      <trkpt lat="48.50673" lon="1.9892">
        <ele>126.55</ele>
        <time>2015-10-18T09:27:43Z</time>
      </trkpt>
      <trkpt lat="48.5067" lon="1.98919">
        <ele>126.55</ele>
        <time>2015-10-18T09:28:07Z</time>
      </trkpt>
      <trkpt lat="48.50669" lon="1.98889">
        <ele>127.03</ele>
        <time>2015-10-18T09:28:22Z</time>
      </trkpt>
      <trkpt lat="48.50672" lon="1.98865">
        <ele>127.51</ele>
        <time>2015-10-18T09:28:38Z</time>
      </trkpt>
      <trkpt lat="48.5068" lon="1.98856">
        <ele>128.47</ele>
        <time>2015-10-18T09:28:53Z</time>
      </trkpt>
      <trkpt lat="48.50681" lon="1.98838">
        <ele>129.43</ele>
        <time>2015-10-18T09:29:07Z</time>
      </trkpt>
      <trkpt lat="48.50683" lon="1.98808">
        <ele>130.88</ele>
        <time>2015-10-18T09:29:25Z</time>
      </trkpt>
      <trkpt lat="48.50685" lon="1.98787">
        <ele>132.32</ele>
        <time>2015-10-18T09:29:39Z</time>
      </trkpt>
      <trkpt lat="48.5069" lon="1.98762">
        <ele>134.24</ele>
        <time>2015-10-18T09:29:56Z</time>
      </trkpt>
      <trkpt lat="48.50692" lon="1.98752">
        <ele>135.2</ele>
        <time>2015-10-18T09:30:16Z</time>
      </trkpt>
      <trkpt lat="48.50694" lon="1.98752">
        <ele>135.2</ele>
        <time>2015-10-18T09:30:41Z</time>
      </trkpt>
      <trkpt lat="48.50699" lon="1.98752">
        <ele>135.2</ele>
        <time>2015-10-18T09:31:09Z</time>
      </trkpt>
      <trkpt lat="48.50695" lon="1.98749">
        <ele>135.2</ele>
        <time>2015-10-18T09:31:39Z</time>
      </trkpt>
      <trkpt lat="48.50694" lon="1.98742">
        <ele>135.68</ele>
        <time>2015-10-18T09:32:08Z</time>
      </trkpt>
      <trkpt lat="48.50692" lon="1.98743">
        <ele>135.68</ele>
        <time>2015-10-18T09:32:37Z</time>
      </trkpt>
      <trkpt lat="48.50692" lon="1.98752">
        <ele>136.16</ele>
        <time>2015-10-18T09:33:06Z</time>
      </trkpt>
      <trkpt lat="48.50696" lon="1.98751">
        <ele>136.64</ele>
        <time>2015-10-18T09:33:30Z</time>
      </trkpt>
      <trkpt lat="48.50696" lon="1.98741">
        <ele>137.13</ele>
        <time>2015-10-18T09:33:55Z</time>
      </trkpt>
      <trkpt lat="48.50696" lon="1.98743">
        <ele>137.61</ele>
        <time>2015-10-18T09:34:21Z</time>
      </trkpt>
      <trkpt lat="48.50695" lon="1.98744">
        <ele>137.61</ele>
        <time>2015-10-18T09:34:43Z</time>
      </trkpt>
      <trkpt lat="48.50698" lon="1.98746">
        <ele>138.09</ele>
        <time>2015-10-18T09:35:10Z</time>
      </trkpt>
      <trkpt lat="48.50699" lon="1.98742">
        <ele>138.09</ele>
        <time>2015-10-18T09:35:28Z</time>
      </trkpt>
      <trkpt lat="48.50697" lon="1.98736">
        <ele>138.57</ele>
        <time>2015-10-18T09:35:59Z</time>
      </trkpt>
      <trkpt lat="48.50697" lon="1.98715">
        <ele>140.01</ele>
        <time>2015-10-18T09:36:14Z</time>
      </trkpt>
      <trkpt lat="48.50703" lon="1.98707">
        <ele>140.97</ele>
        <time>2015-10-18T09:36:30Z</time>
      </trkpt>
      <trkpt lat="48.50704" lon="1.98685">
        <ele>142.89</ele>
        <time>2015-10-18T09:36:47Z</time>
      </trkpt>
      <trkpt lat="48.50704" lon="1.98665">
        <ele>144.34</ele>
        <time>2015-10-18T09:37:03Z</time>
      </trkpt>
      <trkpt lat="48.50704" lon="1.98645">
        <ele>146.74</ele>
        <time>2015-10-18T09:37:18Z</time>
      </trkpt>
      <trkpt lat="48.50705" lon="1.98623">
        <ele>149.14</ele>
        <time>2015-10-18T09:37:36Z</time>
      </trkpt>
      <trkpt lat="48.50702" lon="1.98603">
        <ele>150.1</ele>
        <time>2015-10-18T09:37:52Z</time>
      </trkpt>
      <trkpt lat="48.50697" lon="1.98574">
        <ele>151.06</ele>
        <time>2015-10-18T09:38:09Z</time>
      </trkpt>
      <trkpt lat="48.50692" lon="1.98543">
        <ele>151.06</ele>
        <time>2015-10-18T09:38:24Z</time>
      </trkpt>
      <trkpt lat="48.50691" lon="1.98535">
        <ele>152.99</ele>
        <time>2015-10-18T09:38:29Z</time>
      </trkpt>
      <trkpt lat="48.5069" lon="1.98525">
        <ele>152.99</ele>
        <time>2015-10-18T09:38:44Z</time>
      </trkpt>
      <trkpt lat="48.50684" lon="1.98501">
        <ele>153.47</ele>
        <time>2015-10-18T09:38:59Z</time>
      </trkpt>
      <trkpt lat="48.50683" lon="1.98485">
        <ele>153.47</ele>
        <time>2015-10-18T09:39:06Z</time>
      </trkpt>
      <trkpt lat="48.50682" lon="1.98468">
        <ele>153.95</ele>
        <time>2015-10-18T09:39:19Z</time>
      </trkpt>
      <trkpt lat="48.50683" lon="1.98441">
        <ele>154.43</ele>
        <time>2015-10-18T09:39:33Z</time>
      </trkpt>
      <trkpt lat="48.5069" lon="1.98418">
        <ele>154.43</ele>
        <time>2015-10-18T09:39:51Z</time>
      </trkpt>
      <trkpt lat="48.50696" lon="1.98396">
        <ele>155.39</ele>
        <time>2015-10-18T09:40:07Z</time>
      </trkpt>
      <trkpt lat="48.50701" lon="1.98377">
        <ele>155.39</ele>
        <time>2015-10-18T09:40:20Z</time>
      </trkpt>
      <trkpt lat="48.50701" lon="1.98369">
        <ele>155.39</ele>
        <time>2015-10-18T09:40:24Z</time>
      </trkpt>
      <trkpt lat="48.50701" lon="1.98348">
        <ele>155.39</ele>
        <time>2015-10-18T09:40:37Z</time>
      </trkpt>
      <trkpt lat="48.50691" lon="1.98327">
        <ele>155.87</ele>
        <time>2015-10-18T09:40:53Z</time>
      </trkpt>
      <trkpt lat="48.50685" lon="1.98309">
        <ele>155.87</ele>
        <time>2015-10-18T09:41:06Z</time>
      </trkpt>
      <trkpt lat="48.50674" lon="1.98276">
        <ele>155.87</ele>
        <time>2015-10-18T09:41:21Z</time>
      </trkpt>
      <trkpt lat="48.50669" lon="1.9826">
        <ele>156.35</ele>
        <time>2015-10-18T09:41:32Z</time>
      </trkpt>
      <trkpt lat="48.50662" lon="1.9824">
        <ele>156.35</ele>
        <time>2015-10-18T09:41:46Z</time>
      </trkpt>
      <trkpt lat="48.50656" lon="1.98217">
        <ele>156.35</ele>
        <time>2015-10-18T09:42:00Z</time>
      </trkpt>
      <trkpt lat="48.50656" lon="1.98209">
        <ele>156.35</ele>
        <time>2015-10-18T09:42:14Z</time>
      </trkpt>
      <trkpt lat="48.50652" lon="1.98193">
        <ele>156.35</ele>
        <time>2015-10-18T09:42:32Z</time>
      </trkpt>
      <trkpt lat="48.50649" lon="1.98169">
        <ele>156.35</ele>
        <time>2015-10-18T09:42:45Z</time>
      </trkpt>
      <trkpt lat="48.50647" lon="1.98143">
        <ele>156.35</ele>
        <time>2015-10-18T09:43:04Z</time>
      </trkpt>
      <trkpt lat="48.50646" lon="1.98116">
        <ele>156.35</ele>
        <time>2015-10-18T09:43:20Z</time>
      </trkpt>
      <trkpt lat="48.50642" lon="1.98089">
        <ele>156.35</ele>
        <time>2015-10-18T09:43:35Z</time>
      </trkpt>
      <trkpt lat="48.50635" lon="1.98059">
        <ele>156.35</ele>
        <time>2015-10-18T09:43:53Z</time>
      </trkpt>
      <trkpt lat="48.50621" lon="1.98023">
        <ele>155.87</ele>
        <time>2015-10-18T09:44:13Z</time>
      </trkpt>
      <trkpt lat="48.5061" lon="1.97996">
        <ele>155.87</ele>
        <time>2015-10-18T09:44:30Z</time>
      </trkpt>
      <trkpt lat="48.50599" lon="1.97969">
        <ele>155.87</ele>
        <time>2015-10-18T09:44:49Z</time>
      </trkpt>
      <trkpt lat="48.50594" lon="1.97946">
        <ele>155.87</ele>
        <time>2015-10-18T09:45:05Z</time>
      </trkpt>
      <trkpt lat="48.50585" lon="1.97919">
        <ele>155.39</ele>
        <time>2015-10-18T09:45:22Z</time>
      </trkpt>
      <trkpt lat="48.50578" lon="1.9789">
        <ele>155.39</ele>
        <time>2015-10-18T09:45:37Z</time>
      </trkpt>
      <trkpt lat="48.50577" lon="1.97871">
        <ele>155.39</ele>
        <time>2015-10-18T09:45:51Z</time>
      </trkpt>
      <trkpt lat="48.50574" lon="1.97845">
        <ele>155.39</ele>
        <time>2015-10-18T09:46:09Z</time>
      </trkpt>
      <trkpt lat="48.50568" lon="1.9782">
        <ele>155.39</ele>
        <time>2015-10-18T09:46:24Z</time>
      </trkpt>
      <trkpt lat="48.5057" lon="1.97809">
        <ele>154.91</ele>
        <time>2015-10-18T09:46:31Z</time>
      </trkpt>
      <trkpt lat="48.5057" lon="1.97807">
        <ele>154.91</ele>
        <time>2015-10-18T09:46:49Z</time>
      </trkpt>
      <trkpt lat="48.5058" lon="1.97792">
        <ele>154.91</ele>
        <time>2015-10-18T09:47:04Z</time>
      </trkpt>
      <trkpt lat="48.50594" lon="1.97777">
        <ele>154.91</ele>
        <time>2015-10-18T09:47:21Z</time>
      </trkpt>
      <trkpt lat="48.5061" lon="1.97765">
        <ele>154.43</ele>
        <time>2015-10-18T09:47:38Z</time>
      </trkpt>
      <trkpt lat="48.50621" lon="1.97758">
        <ele>154.43</ele>
        <time>2015-10-18T09:48:01Z</time>
      </trkpt>
      <trkpt lat="48.5064" lon="1.97747">
        <ele>154.43</ele>
        <time>2015-10-18T09:48:19Z</time>
      </trkpt>
      <trkpt lat="48.50656" lon="1.97735">
        <ele>153.95</ele>
        <time>2015-10-18T09:48:37Z</time>
      </trkpt>
      <trkpt lat="48.5068" lon="1.97719">
        <ele>153.95</ele>
        <time>2015-10-18T09:48:57Z</time>
      </trkpt>
      <trkpt lat="48.50694" lon="1.97705">
        <ele>153.47</ele>
        <time>2015-10-18T09:49:13Z</time>
      </trkpt>
      <trkpt lat="48.50701" lon="1.97698">
        <ele>153.95</ele>
        <time>2015-10-18T09:49:28Z</time>
      </trkpt>
      <trkpt lat="48.50703" lon="1.97694">
        <ele>153.47</ele>
        <time>2015-10-18T09:49:47Z</time>
      </trkpt>
      <trkpt lat="48.50706" lon="1.97691">
        <ele>153.95</ele>
        <time>2015-10-18T09:50:14Z</time>
      </trkpt>
      <trkpt lat="48.50711" lon="1.97698">
        <ele>153.47</ele>
        <time>2015-10-18T09:50:31Z</time>
      </trkpt>
      <trkpt lat="48.50724" lon="1.97678">
        <ele>152.51</ele>
        <time>2015-10-18T09:50:52Z</time>
      </trkpt>
      <trkpt lat="48.50734" lon="1.97663">
        <ele>152.51</ele>
        <time>2015-10-18T09:51:12Z</time>
      </trkpt>
      <trkpt lat="48.50736" lon="1.97655">
        <ele>152.03</ele>
        <time>2015-10-18T09:51:34Z</time>
      </trkpt>
      <trkpt lat="48.50741" lon="1.97649">
        <ele>152.03</ele>
        <time>2015-10-18T09:51:54Z</time>
      </trkpt>
      <trkpt lat="48.50755" lon="1.9763">
        <ele>151.06</ele>
        <time>2015-10-18T09:52:14Z</time>
      </trkpt>
      <trkpt lat="48.50761" lon="1.9761">
        <ele>150.1</ele>
        <time>2015-10-18T09:52:32Z</time>
      </trkpt>
      <trkpt lat="48.50771" lon="1.9759">
        <ele>148.66</ele>
        <time>2015-10-18T09:52:48Z</time>
      </trkpt>
      <trkpt lat="48.50784" lon="1.97568">
        <ele>146.26</ele>
        <time>2015-10-18T09:53:06Z</time>
      </trkpt>
      <trkpt lat="48.50793" lon="1.97551">
        <ele>143.37</ele>
        <time>2015-10-18T09:53:22Z</time>
      </trkpt>
      <trkpt lat="48.508" lon="1.97535">
        <ele>140.97</ele>
        <time>2015-10-18T09:53:40Z</time>
      </trkpt>
      <trkpt lat="48.50801" lon="1.97524">
        <ele>139.05</ele>
        <time>2015-10-18T09:54:00Z</time>
      </trkpt>
      <trkpt lat="48.50804" lon="1.9751">
        <ele>136.64</ele>
        <time>2015-10-18T09:54:19Z</time>
      </trkpt>
      <trkpt lat="48.50811" lon="1.97498">
        <ele>134.24</ele>
        <time>2015-10-18T09:54:36Z</time>
      </trkpt>
      <trkpt lat="48.50822" lon="1.97486">
        <ele>131.36</ele>
        <time>2015-10-18T09:54:51Z</time>
      </trkpt>
      <trkpt lat="48.50837" lon="1.97466">
        <ele>129.92</ele>
        <time>2015-10-18T09:55:10Z</time>
      </trkpt>
      <trkpt lat="48.50851" lon="1.97446">
        <ele>128.95</ele>
        <time>2015-10-18T09:55:29Z</time>
      </trkpt>
      <trkpt lat="48.50866" lon="1.97432">
        <ele>127.51</ele>
        <time>2015-10-18T09:55:49Z</time>
      </trkpt>
      <trkpt lat="48.50882" lon="1.97414">
        <ele>127.51</ele>
        <time>2015-10-18T09:56:11Z</time>
      </trkpt>
      <trkpt lat="48.50892" lon="1.97396">
        <ele>127.03</ele>
        <time>2015-10-18T09:56:29Z</time>
      </trkpt>
      <trkpt lat="48.50903" lon="1.97384">
        <ele>127.51</ele>
        <time>2015-10-18T09:56:46Z</time>
      </trkpt>
      <trkpt lat="48.50908" lon="1.9737">
        <ele>128.95</ele>
        <time>2015-10-18T09:57:02Z</time>
      </trkpt>
      <trkpt lat="48.50909" lon="1.97354">
        <ele>129.92</ele>
        <time>2015-10-18T09:57:15Z</time>
      </trkpt>
      <trkpt lat="48.50913" lon="1.97326">
        <ele>131.84</ele>
        <time>2015-10-18T09:57:32Z</time>
      </trkpt>
      <trkpt lat="48.50916" lon="1.973">
        <ele>134.24</ele>
        <time>2015-10-18T09:57:49Z</time>
      </trkpt>
      <trkpt lat="48.50922" lon="1.97277">
        <ele>135.68</ele>
        <time>2015-10-18T09:58:08Z</time>
      </trkpt>
      <trkpt lat="48.50926" lon="1.97256">
        <ele>136.64</ele>
        <time>2015-10-18T09:58:24Z</time>
      </trkpt>
      <trkpt lat="48.50934" lon="1.97226">
        <ele>138.09</ele>
        <time>2015-10-18T09:58:41Z</time>
      </trkpt>
      <trkpt lat="48.50939" lon="1.97207">
        <ele>140.97</ele>
        <time>2015-10-18T09:58:59Z</time>
      </trkpt>
      <trkpt lat="48.50948" lon="1.97187">
        <ele>143.85</ele>
        <time>2015-10-18T09:59:17Z</time>
      </trkpt>
      <trkpt lat="48.50957" lon="1.97158">
        <ele>146.26</ele>
        <time>2015-10-18T09:59:36Z</time>
      </trkpt>
      <trkpt lat="48.50964" lon="1.97147">
        <ele>147.7</ele>
        <time>2015-10-18T09:59:48Z</time>
      </trkpt>
      <trkpt lat="48.50976" lon="1.97127">
        <ele>149.14</ele>
        <time>2015-10-18T10:00:04Z</time>
      </trkpt>
      <trkpt lat="48.50984" lon="1.97112">
        <ele>150.1</ele>
        <time>2015-10-18T10:00:21Z</time>
      </trkpt>
      <trkpt lat="48.50996" lon="1.97092">
        <ele>150.58</ele>
        <time>2015-10-18T10:00:41Z</time>
      </trkpt>
      <trkpt lat="48.51005" lon="1.97069">
        <ele>151.06</ele>
        <time>2015-10-18T10:01:01Z</time>
      </trkpt>
      <trkpt lat="48.51016" lon="1.97051">
        <ele>151.54</ele>
        <time>2015-10-18T10:01:19Z</time>
      </trkpt>
      <trkpt lat="48.51023" lon="1.97036">
        <ele>151.54</ele>
        <time>2015-10-18T10:01:35Z</time>
      </trkpt>
      <trkpt lat="48.5103" lon="1.97025">
        <ele>151.54</ele>
        <time>2015-10-18T10:01:48Z</time>
      </trkpt>
      <trkpt lat="48.51042" lon="1.97006">
        <ele>151.54</ele>
        <time>2015-10-18T10:02:05Z</time>
      </trkpt>
      <trkpt lat="48.51055" lon="1.96987">
        <ele>152.51</ele>
        <time>2015-10-18T10:02:24Z</time>
      </trkpt>
      <trkpt lat="48.51059" lon="1.96978">
        <ele>152.51</ele>
        <time>2015-10-18T10:02:29Z</time>
      </trkpt>
      <trkpt lat="48.51074" lon="1.96953">
        <ele>152.03</ele>
        <time>2015-10-18T10:02:49Z</time>
      </trkpt>
      <trkpt lat="48.51087" lon="1.96934">
        <ele>152.03</ele>
        <time>2015-10-18T10:03:05Z</time>
      </trkpt>
      <trkpt lat="48.51091" lon="1.96928">
        <ele>152.03</ele>
        <time>2015-10-18T10:03:23Z</time>
      </trkpt>
      <trkpt lat="48.51101" lon="1.96914">
        <ele>152.03</ele>
        <time>2015-10-18T10:03:37Z</time>
      </trkpt>
      <trkpt lat="48.51116" lon="1.96891">
        <ele>152.03</ele>
        <time>2015-10-18T10:03:56Z</time>
      </trkpt>
      <trkpt lat="48.51131" lon="1.96873">
        <ele>152.03</ele>
        <time>2015-10-18T10:04:13Z</time>
      </trkpt>
      <trkpt lat="48.51142" lon="1.96854">
        <ele>152.03</ele>
        <time>2015-10-18T10:04:29Z</time>
      </trkpt>
      <trkpt lat="48.51151" lon="1.96843">
        <ele>151.54</ele>
        <time>2015-10-18T10:04:42Z</time>
      </trkpt>
      <trkpt lat="48.5116" lon="1.96829">
        <ele>152.03</ele>
        <time>2015-10-18T10:04:52Z</time>
      </trkpt>
      <trkpt lat="48.51175" lon="1.96803">
        <ele>151.54</ele>
        <time>2015-10-18T10:05:09Z</time>
      </trkpt>
      <trkpt lat="48.51191" lon="1.96778">
        <ele>151.54</ele>
        <time>2015-10-18T10:05:28Z</time>
      </trkpt>
      <trkpt lat="48.51205" lon="1.96755">
        <ele>151.06</ele>
        <time>2015-10-18T10:05:45Z</time>
      </trkpt>
      <trkpt lat="48.5122" lon="1.9673">
        <ele>150.58</ele>
        <time>2015-10-18T10:06:04Z</time>
      </trkpt>
      <trkpt lat="48.51224" lon="1.96723">
        <ele>150.58</ele>
        <time>2015-10-18T10:06:09Z</time>
      </trkpt>
      <trkpt lat="48.51235" lon="1.96701">
        <ele>149.62</ele>
        <time>2015-10-18T10:06:24Z</time>
      </trkpt>
      <trkpt lat="48.51248" lon="1.96672">
        <ele>148.18</ele>
        <time>2015-10-18T10:06:44Z</time>
      </trkpt>
      <trkpt lat="48.51262" lon="1.9665">
        <ele>145.78</ele>
        <time>2015-10-18T10:07:01Z</time>
      </trkpt>
      <trkpt lat="48.51271" lon="1.96637">
        <ele>144.34</ele>
        <time>2015-10-18T10:07:15Z</time>
      </trkpt>
      <trkpt lat="48.51283" lon="1.96624">
        <ele>143.85</ele>
        <time>2015-10-18T10:07:32Z</time>
      </trkpt>
      <trkpt lat="48.51295" lon="1.9661">
        <ele>141.93</ele>
        <time>2015-10-18T10:07:47Z</time>
      </trkpt>
      <trkpt lat="48.51307" lon="1.96591">
        <ele>140.01</ele>
        <time>2015-10-18T10:08:02Z</time>
      </trkpt>
      <trkpt lat="48.5132" lon="1.96566">
        <ele>138.09</ele>
        <time>2015-10-18T10:08:19Z</time>
      </trkpt>
      <trkpt lat="48.51333" lon="1.96536">
        <ele>136.64</ele>
        <time>2015-10-18T10:08:39Z</time>
      </trkpt>
      <trkpt lat="48.51339" lon="1.96527">
        <ele>137.13</ele>
        <time>2015-10-18T10:08:45Z</time>
      </trkpt>
      <trkpt lat="48.51352" lon="1.96513">
        <ele>137.13</ele>
        <time>2015-10-18T10:08:58Z</time>
      </trkpt>
      <trkpt lat="48.51355" lon="1.96513">
        <ele>137.13</ele>
        <time>2015-10-18T10:09:12Z</time>
      </trkpt>
      <trkpt lat="48.51358" lon="1.96515">
        <ele>136.64</ele>
        <time>2015-10-18T10:09:32Z</time>
      </trkpt>
      <trkpt lat="48.51381" lon="1.96508">
        <ele>136.64</ele>
        <time>2015-10-18T10:09:49Z</time>
      </trkpt>
      <trkpt lat="48.51397" lon="1.96505">
        <ele>136.64</ele>
        <time>2015-10-18T10:10:03Z</time>
      </trkpt>
      <trkpt lat="48.51414" lon="1.96503">
        <ele>138.57</ele>
        <time>2015-10-18T10:10:20Z</time>
      </trkpt>
      <trkpt lat="48.5143" lon="1.96508">
        <ele>140.49</ele>
        <time>2015-10-18T10:10:38Z</time>
      </trkpt>
      <trkpt lat="48.51445" lon="1.96511">
        <ele>143.85</ele>
        <time>2015-10-18T10:10:54Z</time>
      </trkpt>
      <trkpt lat="48.51464" lon="1.96509">
        <ele>146.74</ele>
        <time>2015-10-18T10:11:12Z</time>
      </trkpt>
      <trkpt lat="48.51487" lon="1.96508">
        <ele>149.62</ele>
        <time>2015-10-18T10:11:32Z</time>
      </trkpt>
      <trkpt lat="48.51501" lon="1.96525">
        <ele>150.1</ele>
        <time>2015-10-18T10:11:48Z</time>
      </trkpt>
      <trkpt lat="48.51512" lon="1.96541">
        <ele>150.58</ele>
        <time>2015-10-18T10:12:05Z</time>
      </trkpt>
      <trkpt lat="48.51524" lon="1.96562">
        <ele>150.58</ele>
        <time>2015-10-18T10:12:23Z</time>
      </trkpt>
      <trkpt lat="48.51546" lon="1.96588">
        <ele>150.58</ele>
        <time>2015-10-18T10:12:45Z</time>
      </trkpt>
      <trkpt lat="48.51565" lon="1.96608">
        <ele>150.58</ele>
        <time>2015-10-18T10:13:04Z</time>
      </trkpt>
      <trkpt lat="48.51577" lon="1.96633">
        <ele>150.58</ele>
        <time>2015-10-18T10:13:22Z</time>
      </trkpt>
      <trkpt lat="48.51587" lon="1.96657">
        <ele>150.1</ele>
        <time>2015-10-18T10:13:40Z</time>
      </trkpt>
      <trkpt lat="48.51602" lon="1.96684">
        <ele>149.62</ele>
        <time>2015-10-18T10:13:58Z</time>
      </trkpt>
      <trkpt lat="48.51613" lon="1.96709">
        <ele>150.1</ele>
        <time>2015-10-18T10:14:15Z</time>
      </trkpt>
      <trkpt lat="48.51626" lon="1.96728">
        <ele>150.1</ele>
        <time>2015-10-18T10:14:33Z</time>
      </trkpt>
      <trkpt lat="48.51639" lon="1.96745">
        <ele>150.58</ele>
        <time>2015-10-18T10:14:50Z</time>
      </trkpt>
      <trkpt lat="48.51654" lon="1.96764">
        <ele>150.58</ele>
        <time>2015-10-18T10:15:06Z</time>
      </trkpt>
      <trkpt lat="48.51668" lon="1.9679">
        <ele>150.58</ele>
        <time>2015-10-18T10:15:24Z</time>
      </trkpt>
      <trkpt lat="48.51683" lon="1.9681">
        <ele>150.58</ele>
        <time>2015-10-18T10:15:42Z</time>
      </trkpt>
      <trkpt lat="48.51693" lon="1.96827">
        <ele>150.58</ele>
        <time>2015-10-18T10:15:58Z</time>
      </trkpt>
      <trkpt lat="48.51707" lon="1.96849">
        <ele>150.1</ele>
        <time>2015-10-18T10:16:16Z</time>
      </trkpt>
      <trkpt lat="48.51721" lon="1.96864">
        <ele>150.1</ele>
        <time>2015-10-18T10:16:27Z</time>
      </trkpt>
      <trkpt lat="48.51733" lon="1.96879">
        <ele>149.62</ele>
        <time>2015-10-18T10:16:43Z</time>
      </trkpt>
      <trkpt lat="48.51745" lon="1.96902">
        <ele>150.1</ele>
        <time>2015-10-18T10:16:58Z</time>
      </trkpt>
      <trkpt lat="48.5176" lon="1.96932">
        <ele>149.62</ele>
        <time>2015-10-18T10:17:18Z</time>
      </trkpt>
      <trkpt lat="48.5177" lon="1.96951">
        <ele>149.62</ele>
        <time>2015-10-18T10:17:34Z</time>
      </trkpt>
      <trkpt lat="48.51783" lon="1.9698">
        <ele>149.14</ele>
        <time>2015-10-18T10:17:52Z</time>
      </trkpt>
      <trkpt lat="48.51793" lon="1.96998">
        <ele>149.14</ele>
        <time>2015-10-18T10:18:07Z</time>
      </trkpt>
      <trkpt lat="48.51809" lon="1.97029">
        <ele>149.14</ele>
        <time>2015-10-18T10:18:25Z</time>
      </trkpt>
      <trkpt lat="48.51817" lon="1.97053">
        <ele>149.14</ele>
        <time>2015-10-18T10:18:40Z</time>
      </trkpt>
      <trkpt lat="48.51823" lon="1.97068">
        <ele>149.14</ele>
        <time>2015-10-18T10:18:55Z</time>
      </trkpt>
      <trkpt lat="48.51838" lon="1.97083">
        <ele>149.62</ele>
        <time>2015-10-18T10:19:13Z</time>
      </trkpt>
      <trkpt lat="48.5186" lon="1.97092">
        <ele>150.1</ele>
        <time>2015-10-18T10:19:34Z</time>
      </trkpt>
      <trkpt lat="48.51874" lon="1.97094">
        <ele>150.58</ele>
        <time>2015-10-18T10:19:48Z</time>
      </trkpt>
      <trkpt lat="48.51896" lon="1.97091">
        <ele>150.58</ele>
        <time>2015-10-18T10:20:07Z</time>
      </trkpt>
      <trkpt lat="48.51918" lon="1.97083">
        <ele>151.54</ele>
        <time>2015-10-18T10:20:21Z</time>
      </trkpt>
      <trkpt lat="48.51928" lon="1.97085">
        <ele>151.54</ele>
        <time>2015-10-18T10:20:38Z</time>
      </trkpt>
      <trkpt lat="48.51932" lon="1.97085">
        <ele>151.54</ele>
        <time>2015-10-18T10:21:11Z</time>
      </trkpt>
      <trkpt lat="48.51937" lon="1.97079">
        <ele>152.03</ele>
        <time>2015-10-18T10:23:00Z</time>
      </trkpt>
      <trkpt lat="48.51934" lon="1.97076">
        <ele>152.99</ele>
        <time>2015-10-18T10:24:37Z</time>
      </trkpt>
      <trkpt lat="48.51934" lon="1.97077">
        <ele>153.47</ele>
        <time>2015-10-18T10:25:05Z</time>
      </trkpt>
      <trkpt lat="48.51937" lon="1.9708">
        <ele>153.95</ele>
        <time>2015-10-18T10:25:37Z</time>
      </trkpt>
      <trkpt lat="48.51937" lon="1.9708">
        <ele>154.43</ele>
        <time>2015-10-18T10:26:16Z</time>
      </trkpt>
      <trkpt lat="48.51937" lon="1.97081">
        <ele>154.91</ele>
        <time>2015-10-18T10:27:26Z</time>
      </trkpt>
      <trkpt lat="48.51938" lon="1.97079">
        <ele>168.37</ele>
        <time>2015-10-18T11:03:47Z</time>
      </trkpt>
      <trkpt lat="48.51938" lon="1.9708">
        <ele>168.37</ele>
        <time>2015-10-18T11:04:04Z</time>
      </trkpt>
      <trkpt lat="48.51939" lon="1.97079">
        <ele>168.37</ele>
        <time>2015-10-18T11:05:02Z</time>
      </trkpt>
      <trkpt lat="48.51946" lon="1.97083">
        <ele>167.89</ele>
        <time>2015-10-18T11:05:41Z</time>
      </trkpt>
      <trkpt lat="48.51946" lon="1.97074">
        <ele>167.89</ele>
        <time>2015-10-18T11:06:02Z</time>
      </trkpt>
      <trkpt lat="48.5195" lon="1.97077">
        <ele>167.89</ele>
        <time>2015-10-18T11:06:18Z</time>
      </trkpt>
      <trkpt lat="48.51962" lon="1.97085">
        <ele>167.41</ele>
        <time>2015-10-18T11:06:36Z</time>
      </trkpt>
      <trkpt lat="48.51971" lon="1.97093">
        <ele>167.41</ele>
        <time>2015-10-18T11:06:51Z</time>
      </trkpt>
      <trkpt lat="48.51979" lon="1.97094">
        <ele>167.41</ele>
        <time>2015-10-18T11:07:13Z</time>
      </trkpt>
      <trkpt lat="48.5199" lon="1.97097">
        <ele>166.93</ele>
        <time>2015-10-18T11:07:29Z</time>
      </trkpt>
      <trkpt lat="48.52013" lon="1.97104">
        <ele>166.45</ele>
        <time>2015-10-18T11:07:49Z</time>
      </trkpt>
      <trkpt lat="48.52028" lon="1.97109">
        <ele>166.45</ele>
        <time>2015-10-18T11:08:11Z</time>
      </trkpt>
      <trkpt lat="48.52037" lon="1.97114">
        <ele>165.48</ele>
        <time>2015-10-18T11:08:35Z</time>
      </trkpt>
      <trkpt lat="48.52055" lon="1.97113">
        <ele>164.04</ele>
        <time>2015-10-18T11:08:57Z</time>
      </trkpt>
      <trkpt lat="48.52075" lon="1.97114">
        <ele>161.16</ele>
        <time>2015-10-18T11:09:17Z</time>
      </trkpt>
      <trkpt lat="48.52089" lon="1.97115">
        <ele>158.27</ele>
        <time>2015-10-18T11:09:33Z</time>
      </trkpt>
      <trkpt lat="48.52104" lon="1.97117">
        <ele>154.91</ele>
        <time>2015-10-18T11:09:48Z</time>
      </trkpt>
      <trkpt lat="48.52112" lon="1.97119">
        <ele>152.03</ele>
        <time>2015-10-18T11:10:02Z</time>
      </trkpt>
      <trkpt lat="48.52121" lon="1.97121">
        <ele>148.66</ele>
        <time>2015-10-18T11:10:16Z</time>
      </trkpt>
      <trkpt lat="48.52131" lon="1.97121">
        <ele>145.78</ele>
        <time>2015-10-18T11:10:31Z</time>
      </trkpt>
      <trkpt lat="48.52137" lon="1.97123">
        <ele>142.41</ele>
        <time>2015-10-18T11:10:46Z</time>
      </trkpt>
      <trkpt lat="48.52151" lon="1.97125">
        <ele>139.05</ele>
        <time>2015-10-18T11:11:03Z</time>
      </trkpt>
      <trkpt lat="48.52171" lon="1.97126">
        <ele>136.64</ele>
        <time>2015-10-18T11:11:24Z</time>
      </trkpt>
      <trkpt lat="48.52186" lon="1.97131">
        <ele>134.72</ele>
        <time>2015-10-18T11:11:43Z</time>
      </trkpt>
      <trkpt lat="48.52215" lon="1.97131">
        <ele>133.76</ele>
        <time>2015-10-18T11:12:02Z</time>
      </trkpt>
      <trkpt lat="48.52225" lon="1.97133">
        <ele>132.8</ele>
        <time>2015-10-18T11:12:21Z</time>
      </trkpt>
      <trkpt lat="48.5224" lon="1.97134">
        <ele>130.88</ele>
        <time>2015-10-18T11:12:39Z</time>
      </trkpt>
      <trkpt lat="48.52266" lon="1.97136">
        <ele>129.92</ele>
        <time>2015-10-18T11:12:57Z</time>
      </trkpt>
      <trkpt lat="48.52291" lon="1.97136">
        <ele>129.92</ele>
        <time>2015-10-18T11:13:16Z</time>
      </trkpt>
      <trkpt lat="48.52311" lon="1.97138">
        <ele>129.43</ele>
        <time>2015-10-18T11:13:35Z</time>
      </trkpt>
      <trkpt lat="48.52329" lon="1.97139">
        <ele>129.43</ele>
        <time>2015-10-18T11:13:52Z</time>
      </trkpt>
      <trkpt lat="48.52332" lon="1.97137">
        <ele>128.95</ele>
        <time>2015-10-18T11:14:06Z</time>
      </trkpt>
      <trkpt lat="48.52325" lon="1.97141">
        <ele>128.95</ele>
        <time>2015-10-18T11:14:27Z</time>
      </trkpt>
      <trkpt lat="48.52323" lon="1.97138">
        <ele>128.95</ele>
        <time>2015-10-18T11:14:48Z</time>
      </trkpt>
      <trkpt lat="48.52328" lon="1.97143">
        <ele>128.47</ele>
        <time>2015-10-18T11:15:12Z</time>
      </trkpt>
      <trkpt lat="48.52343" lon="1.97141">
        <ele>127.99</ele>
        <time>2015-10-18T11:15:27Z</time>
      </trkpt>
      <trkpt lat="48.52363" lon="1.97143">
        <ele>126.55</ele>
        <time>2015-10-18T11:15:46Z</time>
      </trkpt>
      <trkpt lat="48.52365" lon="1.97142">
        <ele>126.07</ele>
        <time>2015-10-18T11:15:47Z</time>
      </trkpt>
      <trkpt lat="48.5238" lon="1.97144">
        <ele>127.03</ele>
        <time>2015-10-18T11:16:03Z</time>
      </trkpt>
      <trkpt lat="48.524" lon="1.97147">
        <ele>126.55</ele>
        <time>2015-10-18T11:16:22Z</time>
      </trkpt>
      <trkpt lat="48.52413" lon="1.97151">
        <ele>127.51</ele>
        <time>2015-10-18T11:16:37Z</time>
      </trkpt>
      <trkpt lat="48.52422" lon="1.9715">
        <ele>127.51</ele>
        <time>2015-10-18T11:16:48Z</time>
      </trkpt>
      <trkpt lat="48.52437" lon="1.97152">
        <ele>127.51</ele>
        <time>2015-10-18T11:17:05Z</time>
      </trkpt>
      <trkpt lat="48.52459" lon="1.97154">
        <ele>127.51</ele>
        <time>2015-10-18T11:17:24Z</time>
      </trkpt>
      <trkpt lat="48.52484" lon="1.97159">
        <ele>127.51</ele>
        <time>2015-10-18T11:17:46Z</time>
      </trkpt>
      <trkpt lat="48.52501" lon="1.97161">
        <ele>127.03</ele>
        <time>2015-10-18T11:18:08Z</time>
      </trkpt>
      <trkpt lat="48.52515" lon="1.97166">
        <ele>127.03</ele>
        <time>2015-10-18T11:18:25Z</time>
      </trkpt>
      <trkpt lat="48.52534" lon="1.97167">
        <ele>126.55</ele>
        <time>2015-10-18T11:18:40Z</time>
      </trkpt>
      <trkpt lat="48.52541" lon="1.97168">
        <ele>126.55</ele>
        <time>2015-10-18T11:18:49Z</time>
      </trkpt>
      <trkpt lat="48.52561" lon="1.9717">
        <ele>125.59</ele>
        <time>2015-10-18T11:19:10Z</time>
      </trkpt>
      <trkpt lat="48.52576" lon="1.97172">
        <ele>125.59</ele>
        <time>2015-10-18T11:19:27Z</time>
      </trkpt>
      <trkpt lat="48.52594" lon="1.97177">
        <ele>124.15</ele>
        <time>2015-10-18T11:19:46Z</time>
      </trkpt>
      <trkpt lat="48.52622" lon="1.97173">
        <ele>123.67</ele>
        <time>2015-10-18T11:20:03Z</time>
      </trkpt>
      <trkpt lat="48.52651" lon="1.97172">
        <ele>121.74</ele>
        <time>2015-10-18T11:20:25Z</time>
      </trkpt>
      <trkpt lat="48.52669" lon="1.97171">
        <ele>120.78</ele>
        <time>2015-10-18T11:20:43Z</time>
      </trkpt>
      <trkpt lat="48.52689" lon="1.97166">
        <ele>118.86</ele>
        <time>2015-10-18T11:21:02Z</time>
      </trkpt>
      <trkpt lat="48.52709" lon="1.97162">
        <ele>116.94</ele>
        <time>2015-10-18T11:21:20Z</time>
      </trkpt>
      <trkpt lat="48.52727" lon="1.97162">
        <ele>115.5</ele>
        <time>2015-10-18T11:21:37Z</time>
      </trkpt>
      <trkpt lat="48.52743" lon="1.97162">
        <ele>114.53</ele>
        <time>2015-10-18T11:21:56Z</time>
      </trkpt>
      <trkpt lat="48.52747" lon="1.97139">
        <ele>115.5</ele>
        <time>2015-10-18T11:22:11Z</time>
      </trkpt>
      <trkpt lat="48.52747" lon="1.97109">
        <ele>115.5</ele>
        <time>2015-10-18T11:22:29Z</time>
      </trkpt>
      <trkpt lat="48.52749" lon="1.97081">
        <ele>115.5</ele>
        <time>2015-10-18T11:22:46Z</time>
      </trkpt>
      <trkpt lat="48.52753" lon="1.97054">
        <ele>115.01</ele>
        <time>2015-10-18T11:23:05Z</time>
      </trkpt>
      <trkpt lat="48.52755" lon="1.97029">
        <ele>115.01</ele>
        <time>2015-10-18T11:23:21Z</time>
      </trkpt>
      <trkpt lat="48.52756" lon="1.97003">
        <ele>115.01</ele>
        <time>2015-10-18T11:23:36Z</time>
      </trkpt>
      <trkpt lat="48.52761" lon="1.96974">
        <ele>113.57</ele>
        <time>2015-10-18T11:23:55Z</time>
      </trkpt>
      <trkpt lat="48.52764" lon="1.96943">
        <ele>112.13</ele>
        <time>2015-10-18T11:24:15Z</time>
      </trkpt>
      <trkpt lat="48.52765" lon="1.96916">
        <ele>112.13</ele>
        <time>2015-10-18T11:24:32Z</time>
      </trkpt>
      <trkpt lat="48.52767" lon="1.9689">
        <ele>112.13</ele>
        <time>2015-10-18T11:24:50Z</time>
      </trkpt>
      <trkpt lat="48.52773" lon="1.96862">
        <ele>113.57</ele>
        <time>2015-10-18T11:25:11Z</time>
      </trkpt>
      <trkpt lat="48.52771" lon="1.96826">
        <ele>114.53</ele>
        <time>2015-10-18T11:25:29Z</time>
      </trkpt>
      <trkpt lat="48.52772" lon="1.96809">
        <ele>115.5</ele>
        <time>2015-10-18T11:25:42Z</time>
      </trkpt>
      <trkpt lat="48.52777" lon="1.96774">
        <ele>116.46</ele>
        <time>2015-10-18T11:26:04Z</time>
      </trkpt>
      <trkpt lat="48.52778" lon="1.96745">
        <ele>117.9</ele>
        <time>2015-10-18T11:26:23Z</time>
      </trkpt>
      <trkpt lat="48.52781" lon="1.9672">
        <ele>118.38</ele>
        <time>2015-10-18T11:26:40Z</time>
      </trkpt>
      <trkpt lat="48.52781" lon="1.96691">
        <ele>118.38</ele>
        <time>2015-10-18T11:26:58Z</time>
      </trkpt>
      <trkpt lat="48.52784" lon="1.96665">
        <ele>118.38</ele>
        <time>2015-10-18T11:27:14Z</time>
      </trkpt>
      <trkpt lat="48.52791" lon="1.96638">
        <ele>117.42</ele>
        <time>2015-10-18T11:27:33Z</time>
      </trkpt>
      <trkpt lat="48.52794" lon="1.96606">
        <ele>115.5</ele>
        <time>2015-10-18T11:27:53Z</time>
      </trkpt>
      <trkpt lat="48.52797" lon="1.96574">
        <ele>113.57</ele>
        <time>2015-10-18T11:28:13Z</time>
      </trkpt>
      <trkpt lat="48.52801" lon="1.96546">
        <ele>113.09</ele>
        <time>2015-10-18T11:28:30Z</time>
      </trkpt>
      <trkpt lat="48.52802" lon="1.9651">
        <ele>113.57</ele>
        <time>2015-10-18T11:28:51Z</time>
      </trkpt>
      <trkpt lat="48.52804" lon="1.96485">
        <ele>114.05</ele>
        <time>2015-10-18T11:29:07Z</time>
      </trkpt>
      <trkpt lat="48.52806" lon="1.96455">
        <ele>113.57</ele>
        <time>2015-10-18T11:29:26Z</time>
      </trkpt>
      <trkpt lat="48.52804" lon="1.96428">
        <ele>113.09</ele>
        <time>2015-10-18T11:29:45Z</time>
      </trkpt>
      <trkpt lat="48.52806" lon="1.96396">
        <ele>113.09</ele>
        <time>2015-10-18T11:30:02Z</time>
      </trkpt>
      <trkpt lat="48.52809" lon="1.96375">
        <ele>113.09</ele>
        <time>2015-10-18T11:30:15Z</time>
      </trkpt>
      <trkpt lat="48.52812" lon="1.96352">
        <ele>113.57</ele>
        <time>2015-10-18T11:30:30Z</time>
      </trkpt>
      <trkpt lat="48.52815" lon="1.96327">
        <ele>113.09</ele>
        <time>2015-10-18T11:30:47Z</time>
      </trkpt>
      <trkpt lat="48.52821" lon="1.96303">
        <ele>113.57</ele>
        <time>2015-10-18T11:31:02Z</time>
      </trkpt>
      <trkpt lat="48.52822" lon="1.96301">
        <ele>113.57</ele>
        <time>2015-10-18T11:31:04Z</time>
      </trkpt>
      <trkpt lat="48.52826" lon="1.96291">
        <ele>113.57</ele>
        <time>2015-10-18T11:31:10Z</time>
      </trkpt>
      <trkpt lat="48.52827" lon="1.96286">
        <ele>113.57</ele>
        <time>2015-10-18T11:31:13Z</time>
      </trkpt>
      <trkpt lat="48.52829" lon="1.96277">
        <ele>113.09</ele>
        <time>2015-10-18T11:31:18Z</time>
      </trkpt>
      <trkpt lat="48.5283" lon="1.96254">
        <ele>113.09</ele>
        <time>2015-10-18T11:31:35Z</time>
      </trkpt>
      <trkpt lat="48.5283" lon="1.96226">
        <ele>111.65</ele>
        <time>2015-10-18T11:31:52Z</time>
      </trkpt>
      <trkpt lat="48.52832" lon="1.96198">
        <ele>110.21</ele>
        <time>2015-10-18T11:32:09Z</time>
      </trkpt>
      <trkpt lat="48.52832" lon="1.96182">
        <ele>109.25</ele>
        <time>2015-10-18T11:32:24Z</time>
      </trkpt>
      <trkpt lat="48.52838" lon="1.96182">
        <ele>108.29</ele>
        <time>2015-10-18T11:32:47Z</time>
      </trkpt>
      <trkpt lat="48.52862" lon="1.96189">
        <ele>107.81</ele>
        <time>2015-10-18T11:33:05Z</time>
      </trkpt>
      <trkpt lat="48.52879" lon="1.96188">
        <ele>108.29</ele>
        <time>2015-10-18T11:33:21Z</time>
      </trkpt>
      <trkpt lat="48.52898" lon="1.96193">
        <ele>108.77</ele>
        <time>2015-10-18T11:33:38Z</time>
      </trkpt>
      <trkpt lat="48.52919" lon="1.96196">
        <ele>108.77</ele>
        <time>2015-10-18T11:33:58Z</time>
      </trkpt>
      <trkpt lat="48.52939" lon="1.96203">
        <ele>108.29</ele>
        <time>2015-10-18T11:34:18Z</time>
      </trkpt>
      <trkpt lat="48.52956" lon="1.96211">
        <ele>107.81</ele>
        <time>2015-10-18T11:34:36Z</time>
      </trkpt>
      <trkpt lat="48.52981" lon="1.96216">
        <ele>107.32</ele>
        <time>2015-10-18T11:34:57Z</time>
      </trkpt>
      <trkpt lat="48.52999" lon="1.96225">
        <ele>107.32</ele>
        <time>2015-10-18T11:35:17Z</time>
      </trkpt>
      <trkpt lat="48.5302" lon="1.96233">
        <ele>106.36</ele>
        <time>2015-10-18T11:35:35Z</time>
      </trkpt>
      <trkpt lat="48.53042" lon="1.96241">
        <ele>105.88</ele>
        <time>2015-10-18T11:35:56Z</time>
      </trkpt>
      <trkpt lat="48.53059" lon="1.96249">
        <ele>105.88</ele>
        <time>2015-10-18T11:36:16Z</time>
      </trkpt>
      <trkpt lat="48.53057" lon="1.96258">
        <ele>105.88</ele>
        <time>2015-10-18T11:36:35Z</time>
      </trkpt>
      <trkpt lat="48.53069" lon="1.96254">
        <ele>105.88</ele>
        <time>2015-10-18T11:36:49Z</time>
      </trkpt>
      <trkpt lat="48.53053" lon="1.96249">
        <ele>105.88</ele>
        <time>2015-10-18T11:37:03Z</time>
      </trkpt>
      <trkpt lat="48.53049" lon="1.96267">
        <ele>105.4</ele>
        <time>2015-10-18T11:37:19Z</time>
      </trkpt>
      <trkpt lat="48.53045" lon="1.96294">
        <ele>104.92</ele>
        <time>2015-10-18T11:37:37Z</time>
      </trkpt>
      <trkpt lat="48.53039" lon="1.96325">
        <ele>105.4</ele>
        <time>2015-10-18T11:37:55Z</time>
      </trkpt>
      <trkpt lat="48.53032" lon="1.96359">
        <ele>105.88</ele>
        <time>2015-10-18T11:38:17Z</time>
      </trkpt>
      <trkpt lat="48.53027" lon="1.96378">
        <ele>105.88</ele>
        <time>2015-10-18T11:38:27Z</time>
      </trkpt>
      <trkpt lat="48.53022" lon="1.96407">
        <ele>106.84</ele>
        <time>2015-10-18T11:38:47Z</time>
      </trkpt>
      <trkpt lat="48.53033" lon="1.96438">
        <ele>107.32</ele>
        <time>2015-10-18T11:39:04Z</time>
      </trkpt>
      <trkpt lat="48.53036" lon="1.9644">
        <ele>107.81</ele>
        <time>2015-10-18T11:39:06Z</time>
      </trkpt>
      <trkpt lat="48.53039" lon="1.96446">
        <ele>107.81</ele>
        <time>2015-10-18T11:39:09Z</time>
      </trkpt>
      <trkpt lat="48.53044" lon="1.96459">
        <ele>107.81</ele>
        <time>2015-10-18T11:39:16Z</time>
      </trkpt>
      <trkpt lat="48.5306" lon="1.96475">
        <ele>108.77</ele>
        <time>2015-10-18T11:39:33Z</time>
      </trkpt>
      <trkpt lat="48.53064" lon="1.96486">
        <ele>109.25</ele>
        <time>2015-10-18T11:39:48Z</time>
      </trkpt>
      <trkpt lat="48.53064" lon="1.96488">
        <ele>109.25</ele>
        <time>2015-10-18T11:39:50Z</time>
      </trkpt>
      <trkpt lat="48.53066" lon="1.96505">
        <ele>109.25</ele>
        <time>2015-10-18T11:40:04Z</time>
      </trkpt>
      <trkpt lat="48.53068" lon="1.96523">
        <ele>110.21</ele>
        <time>2015-10-18T11:40:19Z</time>
      </trkpt>
      <trkpt lat="48.5307" lon="1.96529">
        <ele>110.21</ele>
        <time>2015-10-18T11:40:23Z</time>
      </trkpt>
      <trkpt lat="48.53069" lon="1.96554">
        <ele>110.69</ele>
        <time>2015-10-18T11:40:37Z</time>
      </trkpt>
      <trkpt lat="48.5307" lon="1.96573">
        <ele>111.65</ele>
        <time>2015-10-18T11:40:50Z</time>
      </trkpt>
      <trkpt lat="48.53074" lon="1.96597">
        <ele>112.13</ele>
        <time>2015-10-18T11:41:05Z</time>
      </trkpt>
      <trkpt lat="48.53074" lon="1.96598">
        <ele>112.13</ele>
        <time>2015-10-18T11:41:06Z</time>
      </trkpt>
      <trkpt lat="48.53077" lon="1.96612">
        <ele>112.61</ele>
        <time>2015-10-18T11:41:14Z</time>
      </trkpt>
      <trkpt lat="48.53081" lon="1.96633">
        <ele>113.09</ele>
        <time>2015-10-18T11:41:29Z</time>
      </trkpt>
      <trkpt lat="48.53087" lon="1.96653">
        <ele>114.05</ele>
        <time>2015-10-18T11:41:43Z</time>
      </trkpt>
      <trkpt lat="48.5309" lon="1.96673">
        <ele>114.53</ele>
        <time>2015-10-18T11:41:58Z</time>
      </trkpt>
      <trkpt lat="48.53096" lon="1.96696">
        <ele>115.5</ele>
        <time>2015-10-18T11:42:15Z</time>
      </trkpt>
      <trkpt lat="48.53099" lon="1.96702">
        <ele>115.98</ele>
        <time>2015-10-18T11:42:21Z</time>
      </trkpt>
      <trkpt lat="48.5311" lon="1.96722">
        <ele>116.94</ele>
        <time>2015-10-18T11:42:38Z</time>
      </trkpt>
      <trkpt lat="48.53114" lon="1.96746">
        <ele>118.38</ele>
        <time>2015-10-18T11:42:53Z</time>
      </trkpt>
      <trkpt lat="48.53115" lon="1.96768">
        <ele>119.34</ele>
        <time>2015-10-18T11:43:08Z</time>
      </trkpt>
      <trkpt lat="48.53111" lon="1.96788">
        <ele>120.3</ele>
        <time>2015-10-18T11:43:22Z</time>
      </trkpt>
      <trkpt lat="48.53104" lon="1.96805">
        <ele>121.26</ele>
        <time>2015-10-18T11:43:36Z</time>
      </trkpt>
      <trkpt lat="48.53094" lon="1.96821">
        <ele>122.71</ele>
        <time>2015-10-18T11:43:53Z</time>
      </trkpt>
      <trkpt lat="48.53085" lon="1.96843">
        <ele>123.67</ele>
        <time>2015-10-18T11:44:09Z</time>
      </trkpt>
      <trkpt lat="48.53086" lon="1.96857">
        <ele>125.11</ele>
        <time>2015-10-18T11:44:24Z</time>
      </trkpt>
      <trkpt lat="48.531" lon="1.9687">
        <ele>126.55</ele>
        <time>2015-10-18T11:44:41Z</time>
      </trkpt>
      <trkpt lat="48.53108" lon="1.96876">
        <ele>127.03</ele>
        <time>2015-10-18T11:44:57Z</time>
      </trkpt>
      <trkpt lat="48.53117" lon="1.96886">
        <ele>128.47</ele>
        <time>2015-10-18T11:45:10Z</time>
      </trkpt>
      <trkpt lat="48.53132" lon="1.96897">
        <ele>130.4</ele>
        <time>2015-10-18T11:45:28Z</time>
      </trkpt>
      <trkpt lat="48.53145" lon="1.96903">
        <ele>131.36</ele>
        <time>2015-10-18T11:45:41Z</time>
      </trkpt>
      <trkpt lat="48.53158" lon="1.96913">
        <ele>133.28</ele>
        <time>2015-10-18T11:45:59Z</time>
      </trkpt>
      <trkpt lat="48.53172" lon="1.96926">
        <ele>135.68</ele>
        <time>2015-10-18T11:46:18Z</time>
      </trkpt>
      <trkpt lat="48.53183" lon="1.96935">
        <ele>138.09</ele>
        <time>2015-10-18T11:46:38Z</time>
      </trkpt>
      <trkpt lat="48.53197" lon="1.96941">
        <ele>140.01</ele>
        <time>2015-10-18T11:46:55Z</time>
      </trkpt>
      <trkpt lat="48.53215" lon="1.96934">
        <ele>142.89</ele>
        <time>2015-10-18T11:47:16Z</time>
      </trkpt>
      <trkpt lat="48.53232" lon="1.96926">
        <ele>145.3</ele>
        <time>2015-10-18T11:47:36Z</time>
      </trkpt>
      <trkpt lat="48.53247" lon="1.96917">
        <ele>146.74</ele>
        <time>2015-10-18T11:47:57Z</time>
      </trkpt>
      <trkpt lat="48.53265" lon="1.96919">
        <ele>147.22</ele>
        <time>2015-10-18T11:48:16Z</time>
      </trkpt>
      <trkpt lat="48.53278" lon="1.9692">
        <ele>147.22</ele>
        <time>2015-10-18T11:48:35Z</time>
      </trkpt>
      <trkpt lat="48.53302" lon="1.96921">
        <ele>147.22</ele>
        <time>2015-10-18T11:48:54Z</time>
      </trkpt>
      <trkpt lat="48.5332" lon="1.96925">
        <ele>147.22</ele>
        <time>2015-10-18T11:49:11Z</time>
      </trkpt>
      <trkpt lat="48.53342" lon="1.96928">
        <ele>147.22</ele>
        <time>2015-10-18T11:49:32Z</time>
      </trkpt>
      <trkpt lat="48.53362" lon="1.96934">
        <ele>147.22</ele>
        <time>2015-10-18T11:49:52Z</time>
      </trkpt>
      <trkpt lat="48.5338" lon="1.9694">
        <ele>147.7</ele>
        <time>2015-10-18T11:50:09Z</time>
      </trkpt>
      <trkpt lat="48.53402" lon="1.96953">
        <ele>147.22</ele>
        <time>2015-10-18T11:50:31Z</time>
      </trkpt>
      <trkpt lat="48.53424" lon="1.96962">
        <ele>147.7</ele>
        <time>2015-10-18T11:50:51Z</time>
      </trkpt>
      <trkpt lat="48.53441" lon="1.96961">
        <ele>147.7</ele>
        <time>2015-10-18T11:51:08Z</time>
      </trkpt>
      <trkpt lat="48.53445" lon="1.96929">
        <ele>148.66</ele>
        <time>2015-10-18T11:51:28Z</time>
      </trkpt>
      <trkpt lat="48.5345" lon="1.96899">
        <ele>149.14</ele>
        <time>2015-10-18T11:51:47Z</time>
      </trkpt>
      <trkpt lat="48.53454" lon="1.96867">
        <ele>149.14</ele>
        <time>2015-10-18T11:52:08Z</time>
      </trkpt>
      <trkpt lat="48.53458" lon="1.96837">
        <ele>150.1</ele>
        <time>2015-10-18T11:52:27Z</time>
      </trkpt>
      <trkpt lat="48.53461" lon="1.96805">
        <ele>150.58</ele>
        <time>2015-10-18T11:52:49Z</time>
      </trkpt>
      <trkpt lat="48.53463" lon="1.96777">
        <ele>151.06</ele>
        <time>2015-10-18T11:53:09Z</time>
      </trkpt>
      <trkpt lat="48.53465" lon="1.96743">
        <ele>151.54</ele>
        <time>2015-10-18T11:53:31Z</time>
      </trkpt>
      <trkpt lat="48.53467" lon="1.96716">
        <ele>151.54</ele>
        <time>2015-10-18T11:53:52Z</time>
      </trkpt>
      <trkpt lat="48.5347" lon="1.96688">
        <ele>152.51</ele>
        <time>2015-10-18T11:54:11Z</time>
      </trkpt>
      <trkpt lat="48.53475" lon="1.9666">
        <ele>152.51</ele>
        <time>2015-10-18T11:54:32Z</time>
      </trkpt>
      <trkpt lat="48.53478" lon="1.9666">
        <ele>152.51</ele>
        <time>2015-10-18T11:54:46Z</time>
      </trkpt>
      <trkpt lat="48.53474" lon="1.9666">
        <ele>152.51</ele>
        <time>2015-10-18T11:55:02Z</time>
      </trkpt>
      <trkpt lat="48.53473" lon="1.9666">
        <ele>152.51</ele>
        <time>2015-10-18T11:55:25Z</time>
      </trkpt>
      <trkpt lat="48.53477" lon="1.96645">
        <ele>152.51</ele>
        <time>2015-10-18T11:55:43Z</time>
      </trkpt>
      <trkpt lat="48.5348" lon="1.96642">
        <ele>152.51</ele>
        <time>2015-10-18T11:56:05Z</time>
      </trkpt>
      <trkpt lat="48.53479" lon="1.96648">
        <ele>152.51</ele>
        <time>2015-10-18T11:56:30Z</time>
      </trkpt>
      <trkpt lat="48.53477" lon="1.9666">
        <ele>152.51</ele>
        <time>2015-10-18T11:57:00Z</time>
      </trkpt>
      <trkpt lat="48.53474" lon="1.96663">
        <ele>152.03</ele>
        <time>2015-10-18T11:57:21Z</time>
      </trkpt>
      <trkpt lat="48.53472" lon="1.9666">
        <ele>152.51</ele>
        <time>2015-10-18T11:57:48Z</time>
      </trkpt>
      <trkpt lat="48.53465" lon="1.96654">
        <ele>152.51</ele>
        <time>2015-10-18T11:58:18Z</time>
      </trkpt>
      <trkpt lat="48.53467" lon="1.96656">
        <ele>152.51</ele>
        <time>2015-10-18T11:58:39Z</time>
      </trkpt>
      <trkpt lat="48.53469" lon="1.9665">
        <ele>152.99</ele>
        <time>2015-10-18T11:59:00Z</time>
      </trkpt>
      <trkpt lat="48.53471" lon="1.96646">
        <ele>152.99</ele>
        <time>2015-10-18T11:59:26Z</time>
      </trkpt>
      <trkpt lat="48.53474" lon="1.96633">
        <ele>152.99</ele>
        <time>2015-10-18T11:59:49Z</time>
      </trkpt>
      <trkpt lat="48.53492" lon="1.96621">
        <ele>153.47</ele>
        <time>2015-10-18T12:00:10Z</time>
      </trkpt>
      <trkpt lat="48.53505" lon="1.96605">
        <ele>153.47</ele>
        <time>2015-10-18T12:00:31Z</time>
      </trkpt>
      <trkpt lat="48.53525" lon="1.96584">
        <ele>153.47</ele>
        <time>2015-10-18T12:00:53Z</time>
      </trkpt>
      <trkpt lat="48.53544" lon="1.96566">
        <ele>152.99</ele>
        <time>2015-10-18T12:01:10Z</time>
      </trkpt>
      <trkpt lat="48.53559" lon="1.96549">
        <ele>152.99</ele>
        <time>2015-10-18T12:01:29Z</time>
      </trkpt>
      <trkpt lat="48.53575" lon="1.96529">
        <ele>152.51</ele>
        <time>2015-10-18T12:01:49Z</time>
      </trkpt>
      <trkpt lat="48.53587" lon="1.96508">
        <ele>151.06</ele>
        <time>2015-10-18T12:02:08Z</time>
      </trkpt>
      <trkpt lat="48.53604" lon="1.96479">
        <ele>150.1</ele>
        <time>2015-10-18T12:02:30Z</time>
      </trkpt>
      <trkpt lat="48.53617" lon="1.96447">
        <ele>149.14</ele>
        <time>2015-10-18T12:02:51Z</time>
      </trkpt>
      <trkpt lat="48.53621" lon="1.9642">
        <ele>148.18</ele>
        <time>2015-10-18T12:03:09Z</time>
      </trkpt>
      <trkpt lat="48.53629" lon="1.96386">
        <ele>147.7</ele>
        <time>2015-10-18T12:03:29Z</time>
      </trkpt>
      <trkpt lat="48.53641" lon="1.96359">
        <ele>146.74</ele>
        <time>2015-10-18T12:03:48Z</time>
      </trkpt>
      <trkpt lat="48.53649" lon="1.96338">
        <ele>146.26</ele>
        <time>2015-10-18T12:04:03Z</time>
      </trkpt>
      <trkpt lat="48.5366" lon="1.96317">
        <ele>146.26</ele>
        <time>2015-10-18T12:04:20Z</time>
      </trkpt>
      <trkpt lat="48.53668" lon="1.96299">
        <ele>146.74</ele>
        <time>2015-10-18T12:04:33Z</time>
      </trkpt>
      <trkpt lat="48.53676" lon="1.96279">
        <ele>147.22</ele>
        <time>2015-10-18T12:04:47Z</time>
      </trkpt>
      <trkpt lat="48.53685" lon="1.96262">
        <ele>147.22</ele>
        <time>2015-10-18T12:05:02Z</time>
      </trkpt>
      <trkpt lat="48.53693" lon="1.96243">
        <ele>147.7</ele>
        <time>2015-10-18T12:05:14Z</time>
      </trkpt>
      <trkpt lat="48.53704" lon="1.96228">
        <ele>147.7</ele>
        <time>2015-10-18T12:05:29Z</time>
      </trkpt>
      <trkpt lat="48.53721" lon="1.96216">
        <ele>148.18</ele>
        <time>2015-10-18T12:05:47Z</time>
      </trkpt>
      <trkpt lat="48.53736" lon="1.96205">
        <ele>149.14</ele>
        <time>2015-10-18T12:06:03Z</time>
      </trkpt>
      <trkpt lat="48.53752" lon="1.96199">
        <ele>149.62</ele>
        <time>2015-10-18T12:06:18Z</time>
      </trkpt>
      <trkpt lat="48.53771" lon="1.96202">
        <ele>150.1</ele>
        <time>2015-10-18T12:06:37Z</time>
      </trkpt>
      <trkpt lat="48.53791" lon="1.96203">
        <ele>150.58</ele>
        <time>2015-10-18T12:06:56Z</time>
      </trkpt>
      <trkpt lat="48.53813" lon="1.96202">
        <ele>151.06</ele>
        <time>2015-10-18T12:07:15Z</time>
      </trkpt>
      <trkpt lat="48.53829" lon="1.96201">
        <ele>151.54</ele>
        <time>2015-10-18T12:07:33Z</time>
      </trkpt>
      <trkpt lat="48.53851" lon="1.96205">
        <ele>151.54</ele>
        <time>2015-10-18T12:07:54Z</time>
      </trkpt>
      <trkpt lat="48.53872" lon="1.96201">
        <ele>152.03</ele>
        <time>2015-10-18T12:08:14Z</time>
      </trkpt>
      <trkpt lat="48.53892" lon="1.96201">
        <ele>152.51</ele>
        <time>2015-10-18T12:08:33Z</time>
      </trkpt>
      <trkpt lat="48.53914" lon="1.96199">
        <ele>152.99</ele>
        <time>2015-10-18T12:08:52Z</time>
      </trkpt>
      <trkpt lat="48.53936" lon="1.96199">
        <ele>152.99</ele>
        <time>2015-10-18T12:09:12Z</time>
      </trkpt>
      <trkpt lat="48.53958" lon="1.96193">
        <ele>152.99</ele>
        <time>2015-10-18T12:09:32Z</time>
      </trkpt>
      <trkpt lat="48.53977" lon="1.96184">
        <ele>152.99</ele>
        <time>2015-10-18T12:09:51Z</time>
      </trkpt>
      <trkpt lat="48.54002" lon="1.96176">
        <ele>153.95</ele>
        <time>2015-10-18T12:10:13Z</time>
      </trkpt>
      <trkpt lat="48.5402" lon="1.96174">
        <ele>153.47</ele>
        <time>2015-10-18T12:10:31Z</time>
      </trkpt>
      <trkpt lat="48.54042" lon="1.9617">
        <ele>153.95</ele>
        <time>2015-10-18T12:10:51Z</time>
      </trkpt>
      <trkpt lat="48.5405" lon="1.96166">
        <ele>153.95</ele>
        <time>2015-10-18T12:11:09Z</time>
      </trkpt>
      <trkpt lat="48.54058" lon="1.96171">
        <ele>153.95</ele>
        <time>2015-10-18T12:11:29Z</time>
      </trkpt>
      <trkpt lat="48.54072" lon="1.96178">
        <ele>154.91</ele>
        <time>2015-10-18T12:11:47Z</time>
      </trkpt>
      <trkpt lat="48.54078" lon="1.96181">
        <ele>154.91</ele>
        <time>2015-10-18T12:12:01Z</time>
      </trkpt>
      <trkpt lat="48.54088" lon="1.9619">
        <ele>154.91</ele>
        <time>2015-10-18T12:12:15Z</time>
      </trkpt>
      <trkpt lat="48.54106" lon="1.96201">
        <ele>155.87</ele>
        <time>2015-10-18T12:12:35Z</time>
      </trkpt>
      <trkpt lat="48.54127" lon="1.96208">
        <ele>155.87</ele>
        <time>2015-10-18T12:12:53Z</time>
      </trkpt>
      <trkpt lat="48.54144" lon="1.96213">
        <ele>156.35</ele>
        <time>2015-10-18T12:13:12Z</time>
      </trkpt>
      <trkpt lat="48.54163" lon="1.96207">
        <ele>156.35</ele>
        <time>2015-10-18T12:13:29Z</time>
      </trkpt>
      <trkpt lat="48.54178" lon="1.96209">
        <ele>156.35</ele>
        <time>2015-10-18T12:13:46Z</time>
      </trkpt>
      <trkpt lat="48.54198" lon="1.96216">
        <ele>156.35</ele>
        <time>2015-10-18T12:14:07Z</time>
      </trkpt>
      <trkpt lat="48.5422" lon="1.96222">
        <ele>156.83</ele>
        <time>2015-10-18T12:14:26Z</time>
      </trkpt>
      <trkpt lat="48.54241" lon="1.96229">
        <ele>156.83</ele>
        <time>2015-10-18T12:14:45Z</time>
      </trkpt>
      <trkpt lat="48.54259" lon="1.96235">
        <ele>157.31</ele>
        <time>2015-10-18T12:14:59Z</time>
      </trkpt>
      <trkpt lat="48.54277" lon="1.96237">
        <ele>156.83</ele>
        <time>2015-10-18T12:15:16Z</time>
      </trkpt>
      <trkpt lat="48.54303" lon="1.96244">
        <ele>157.31</ele>
        <time>2015-10-18T12:15:38Z</time>
      </trkpt>
      <trkpt lat="48.54324" lon="1.96252">
        <ele>157.79</ele>
        <time>2015-10-18T12:15:58Z</time>
      </trkpt>
      <trkpt lat="48.54346" lon="1.96264">
        <ele>157.31</ele>
        <time>2015-10-18T12:16:19Z</time>
      </trkpt>
      <trkpt lat="48.54363" lon="1.96264">
        <ele>157.31</ele>
        <time>2015-10-18T12:16:37Z</time>
      </trkpt>
      <trkpt lat="48.54381" lon="1.9625">
        <ele>157.79</ele>
        <time>2015-10-18T12:16:56Z</time>
      </trkpt>
      <trkpt lat="48.54393" lon="1.96248">
        <ele>157.79</ele>
        <time>2015-10-18T12:17:14Z</time>
      </trkpt>
      <trkpt lat="48.54407" lon="1.9623">
        <ele>158.27</ele>
        <time>2015-10-18T12:17:32Z</time>
      </trkpt>
      <trkpt lat="48.54427" lon="1.96209">
        <ele>158.75</ele>
        <time>2015-10-18T12:17:51Z</time>
      </trkpt>
      <trkpt lat="48.54445" lon="1.96195">
        <ele>158.75</ele>
        <time>2015-10-18T12:18:09Z</time>
      </trkpt>
      <trkpt lat="48.54465" lon="1.96181">
        <ele>158.75</ele>
        <time>2015-10-18T12:18:28Z</time>
      </trkpt>
      <trkpt lat="48.54484" lon="1.96166">
        <ele>158.75</ele>
        <time>2015-10-18T12:18:48Z</time>
      </trkpt>
      <trkpt lat="48.54502" lon="1.96149">
        <ele>159.24</ele>
        <time>2015-10-18T12:19:06Z</time>
      </trkpt>
      <trkpt lat="48.54522" lon="1.96136">
        <ele>159.72</ele>
        <time>2015-10-18T12:19:23Z</time>
      </trkpt>
      <trkpt lat="48.54521" lon="1.96129">
        <ele>159.72</ele>
        <time>2015-10-18T12:19:43Z</time>
      </trkpt>
      <trkpt lat="48.5452" lon="1.96129">
        <ele>159.72</ele>
        <time>2015-10-18T12:20:11Z</time>
      </trkpt>
      <trkpt lat="48.5452" lon="1.96133">
        <ele>159.72</ele>
        <time>2015-10-18T12:20:39Z</time>
      </trkpt>
      <trkpt lat="48.54522" lon="1.96142">
        <ele>160.2</ele>
        <time>2015-10-18T12:21:00Z</time>
      </trkpt>
      <trkpt lat="48.5452" lon="1.96142">
        <ele>159.72</ele>
        <time>2015-10-18T12:21:20Z</time>
      </trkpt>
      <trkpt lat="48.54523" lon="1.96144">
        <ele>160.2</ele>
        <time>2015-10-18T12:21:40Z</time>
      </trkpt>
      <trkpt lat="48.5453" lon="1.96152">
        <ele>160.2</ele>
        <time>2015-10-18T12:21:55Z</time>
      </trkpt>
      <trkpt lat="48.54535" lon="1.96148">
        <ele>160.2</ele>
        <time>2015-10-18T12:22:14Z</time>
      </trkpt>
      <trkpt lat="48.54545" lon="1.96154">
        <ele>160.2</ele>
        <time>2015-10-18T12:22:31Z</time>
      </trkpt>
      <trkpt lat="48.54539" lon="1.96154">
        <ele>160.2</ele>
        <time>2015-10-18T12:22:43Z</time>
      </trkpt>
      <trkpt lat="48.54526" lon="1.96167">
        <ele>160.2</ele>
        <time>2015-10-18T12:23:00Z</time>
      </trkpt>
      <trkpt lat="48.54533" lon="1.96187">
        <ele>160.2</ele>
        <time>2015-10-18T12:23:15Z</time>
      </trkpt>
      <trkpt lat="48.54537" lon="1.96208">
        <ele>160.2</ele>
        <time>2015-10-18T12:23:31Z</time>
      </trkpt>
      <trkpt lat="48.54544" lon="1.96236">
        <ele>160.2</ele>
        <time>2015-10-18T12:23:49Z</time>
      </trkpt>
      <trkpt lat="48.54549" lon="1.96268">
        <ele>159.72</ele>
        <time>2015-10-18T12:24:09Z</time>
      </trkpt>
      <trkpt lat="48.54555" lon="1.96302">
        <ele>160.2</ele>
        <time>2015-10-18T12:24:29Z</time>
      </trkpt>
      <trkpt lat="48.54558" lon="1.9632">
        <ele>160.2</ele>
        <time>2015-10-18T12:24:43Z</time>
      </trkpt>
      <trkpt lat="48.54564" lon="1.96347">
        <ele>160.2</ele>
        <time>2015-10-18T12:24:59Z</time>
      </trkpt>
      <trkpt lat="48.54567" lon="1.96373">
        <ele>160.2</ele>
        <time>2015-10-18T12:25:16Z</time>
      </trkpt>
      <trkpt lat="48.54573" lon="1.96401">
        <ele>160.2</ele>
        <time>2015-10-18T12:25:33Z</time>
      </trkpt>
      <trkpt lat="48.54576" lon="1.96422">
        <ele>160.2</ele>
        <time>2015-10-18T12:25:50Z</time>
      </trkpt>
      <trkpt lat="48.54579" lon="1.96454">
        <ele>160.2</ele>
        <time>2015-10-18T12:26:09Z</time>
      </trkpt>
      <trkpt lat="48.54587" lon="1.96482">
        <ele>159.72</ele>
        <time>2015-10-18T12:26:29Z</time>
      </trkpt>
      <trkpt lat="48.54594" lon="1.96513">
        <ele>159.72</ele>
        <time>2015-10-18T12:26:47Z</time>
      </trkpt>
      <trkpt lat="48.54597" lon="1.96541">
        <ele>159.72</ele>
        <time>2015-10-18T12:27:04Z</time>
      </trkpt>
      <trkpt lat="48.54603" lon="1.96568">
        <ele>159.72</ele>
        <time>2015-10-18T12:27:22Z</time>
      </trkpt>
      <trkpt lat="48.54609" lon="1.96597">
        <ele>159.72</ele>
        <time>2015-10-18T12:27:42Z</time>
      </trkpt>
      <trkpt lat="48.54611" lon="1.96613">
        <ele>159.24</ele>
        <time>2015-10-18T12:28:01Z</time>
      </trkpt>
      <trkpt lat="48.54615" lon="1.96646">
        <ele>159.24</ele>
        <time>2015-10-18T12:28:18Z</time>
      </trkpt>
      <trkpt lat="48.54622" lon="1.96676">
        <ele>158.75</ele>
        <time>2015-10-18T12:28:36Z</time>
      </trkpt>
      <trkpt lat="48.54626" lon="1.96709">
        <ele>158.75</ele>
        <time>2015-10-18T12:28:55Z</time>
      </trkpt>
      <trkpt lat="48.54633" lon="1.9674">
        <ele>158.27</ele>
        <time>2015-10-18T12:29:16Z</time>
      </trkpt>
      <trkpt lat="48.54638" lon="1.96774">
        <ele>157.79</ele>
        <time>2015-10-18T12:29:37Z</time>
      </trkpt>
      <trkpt lat="48.54643" lon="1.96793">
        <ele>158.27</ele>
        <time>2015-10-18T12:29:58Z</time>
      </trkpt>
      <trkpt lat="48.5464" lon="1.96788">
        <ele>157.79</ele>
        <time>2015-10-18T12:30:23Z</time>
      </trkpt>
      <trkpt lat="48.54632" lon="1.96772">
        <ele>157.79</ele>
        <time>2015-10-18T12:30:46Z</time>
      </trkpt>
      <trkpt lat="48.54632" lon="1.96776">
        <ele>157.79</ele>
        <time>2015-10-18T12:31:08Z</time>
      </trkpt>
      <trkpt lat="48.54633" lon="1.96774">
        <ele>157.79</ele>
        <time>2015-10-18T12:31:39Z</time>
      </trkpt>
      <trkpt lat="48.54631" lon="1.9676">
        <ele>157.79</ele>
        <time>2015-10-18T12:32:03Z</time>
      </trkpt>
      <trkpt lat="48.54642" lon="1.96778">
        <ele>157.79</ele>
        <time>2015-10-18T12:32:26Z</time>
      </trkpt>
      <trkpt lat="48.54645" lon="1.96782">
        <ele>157.79</ele>
        <time>2015-10-18T12:32:47Z</time>
      </trkpt>
      <trkpt lat="48.54641" lon="1.96795">
        <ele>157.79</ele>
        <time>2015-10-18T12:33:02Z</time>
      </trkpt>
      <trkpt lat="48.54646" lon="1.96819">
        <ele>157.79</ele>
        <time>2015-10-18T12:33:20Z</time>
      </trkpt>
      <trkpt lat="48.5465" lon="1.96846">
        <ele>157.31</ele>
        <time>2015-10-18T12:33:40Z</time>
      </trkpt>
      <trkpt lat="48.54655" lon="1.96875">
        <ele>157.31</ele>
        <time>2015-10-18T12:33:59Z</time>
      </trkpt>
      <trkpt lat="48.54661" lon="1.96906">
        <ele>157.31</ele>
        <time>2015-10-18T12:34:19Z</time>
      </trkpt>
      <trkpt lat="48.54665" lon="1.96913">
        <ele>157.31</ele>
        <time>2015-10-18T12:34:38Z</time>
      </trkpt>
      <trkpt lat="48.54667" lon="1.96919">
        <ele>157.31</ele>
        <time>2015-10-18T12:34:59Z</time>
      </trkpt>
      <trkpt lat="48.54668" lon="1.96944">
        <ele>157.79</ele>
        <time>2015-10-18T12:35:17Z</time>
      </trkpt>
      <trkpt lat="48.54673" lon="1.9697">
        <ele>157.79</ele>
        <time>2015-10-18T12:35:37Z</time>
      </trkpt>
      <trkpt lat="48.54675" lon="1.96999">
        <ele>158.27</ele>
        <time>2015-10-18T12:35:57Z</time>
      </trkpt>
      <trkpt lat="48.54677" lon="1.97005">
        <ele>158.27</ele>
        <time>2015-10-18T12:36:21Z</time>
      </trkpt>
      <trkpt lat="48.54683" lon="1.97028">
        <ele>158.27</ele>
        <time>2015-10-18T12:36:39Z</time>
      </trkpt>
      <trkpt lat="48.54688" lon="1.97053">
        <ele>158.27</ele>
        <time>2015-10-18T12:36:56Z</time>
      </trkpt>
      <trkpt lat="48.54695" lon="1.97084">
        <ele>158.75</ele>
        <time>2015-10-18T12:37:15Z</time>
      </trkpt>
      <trkpt lat="48.54701" lon="1.97109">
        <ele>158.75</ele>
        <time>2015-10-18T12:37:32Z</time>
      </trkpt>
      <trkpt lat="48.54704" lon="1.97139">
        <ele>158.75</ele>
        <time>2015-10-18T12:37:50Z</time>
      </trkpt>
      <trkpt lat="48.54705" lon="1.97162">
        <ele>158.75</ele>
        <time>2015-10-18T12:38:05Z</time>
      </trkpt>
      <trkpt lat="48.54709" lon="1.97168">
        <ele>158.75</ele>
        <time>2015-10-18T12:38:11Z</time>
      </trkpt>
      <trkpt lat="48.5471" lon="1.97171">
        <ele>159.24</ele>
        <time>2015-10-18T12:39:29Z</time>
      </trkpt>
      <trkpt lat="48.5471" lon="1.97172">
        <ele>159.24</ele>
        <time>2015-10-18T12:39:30Z</time>
      </trkpt>
      <trkpt lat="48.54712" lon="1.97179">
        <ele>159.24</ele>
        <time>2015-10-18T12:39:46Z</time>
      </trkpt>
      <trkpt lat="48.54711" lon="1.97178">
        <ele>159.24</ele>
        <time>2015-10-18T12:40:01Z</time>
      </trkpt>
      <trkpt lat="48.54706" lon="1.97182">
        <ele>159.24</ele>
        <time>2015-10-18T12:40:27Z</time>
      </trkpt>
      <trkpt lat="48.54702" lon="1.97178">
        <ele>159.72</ele>
        <time>2015-10-18T12:40:46Z</time>
      </trkpt>
      <trkpt lat="48.54704" lon="1.97193">
        <ele>159.24</ele>
        <time>2015-10-18T12:41:02Z</time>
      </trkpt>
      <trkpt lat="48.54708" lon="1.97181">
        <ele>159.24</ele>
        <time>2015-10-18T12:41:19Z</time>
      </trkpt>
      <trkpt lat="48.54703" lon="1.97182">
        <ele>159.72</ele>
        <time>2015-10-18T12:41:42Z</time>
      </trkpt>
      <trkpt lat="48.54703" lon="1.97197">
        <ele>159.72</ele>
        <time>2015-10-18T12:41:57Z</time>
      </trkpt>
      <trkpt lat="48.54695" lon="1.97226">
        <ele>159.72</ele>
        <time>2015-10-18T12:42:16Z</time>
      </trkpt>
      <trkpt lat="48.54686" lon="1.97248">
        <ele>160.2</ele>
        <time>2015-10-18T12:42:32Z</time>
      </trkpt>
      <trkpt lat="48.54677" lon="1.97272">
        <ele>159.72</ele>
        <time>2015-10-18T12:42:49Z</time>
      </trkpt>
      <trkpt lat="48.54667" lon="1.97299">
        <ele>160.2</ele>
        <time>2015-10-18T12:43:08Z</time>
      </trkpt>
      <trkpt lat="48.54661" lon="1.97322">
        <ele>160.2</ele>
        <time>2015-10-18T12:43:26Z</time>
      </trkpt>
      <trkpt lat="48.54652" lon="1.97345">
        <ele>159.72</ele>
        <time>2015-10-18T12:43:44Z</time>
      </trkpt>
      <trkpt lat="48.54644" lon="1.97372">
        <ele>160.2</ele>
        <time>2015-10-18T12:44:03Z</time>
      </trkpt>
      <trkpt lat="48.54631" lon="1.97404">
        <ele>159.72</ele>
        <time>2015-10-18T12:44:23Z</time>
      </trkpt>
      <trkpt lat="48.54625" lon="1.97423">
        <ele>159.72</ele>
        <time>2015-10-18T12:44:42Z</time>
      </trkpt>
      <trkpt lat="48.54615" lon="1.97451">
        <ele>159.72</ele>
        <time>2015-10-18T12:45:01Z</time>
      </trkpt>
      <trkpt lat="48.54608" lon="1.97475">
        <ele>159.72</ele>
        <time>2015-10-18T12:45:18Z</time>
      </trkpt>
      <trkpt lat="48.54599" lon="1.975">
        <ele>159.72</ele>
        <time>2015-10-18T12:45:33Z</time>
      </trkpt>
      <trkpt lat="48.54589" lon="1.9753">
        <ele>159.24</ele>
        <time>2015-10-18T12:45:52Z</time>
      </trkpt>
      <trkpt lat="48.54577" lon="1.97562">
        <ele>159.24</ele>
        <time>2015-10-18T12:46:15Z</time>
      </trkpt>
      <trkpt lat="48.54564" lon="1.97594">
        <ele>159.24</ele>
        <time>2015-10-18T12:46:36Z</time>
      </trkpt>
      <trkpt lat="48.54558" lon="1.97624">
        <ele>159.24</ele>
        <time>2015-10-18T12:46:54Z</time>
      </trkpt>
      <trkpt lat="48.54549" lon="1.97643">
        <ele>158.75</ele>
        <time>2015-10-18T12:47:13Z</time>
      </trkpt>
      <trkpt lat="48.54539" lon="1.97675">
        <ele>158.75</ele>
        <time>2015-10-18T12:47:34Z</time>
      </trkpt>
      <trkpt lat="48.5453" lon="1.977">
        <ele>158.27</ele>
        <time>2015-10-18T12:47:55Z</time>
      </trkpt>
      <trkpt lat="48.54519" lon="1.97728">
        <ele>158.27</ele>
        <time>2015-10-18T12:48:15Z</time>
      </trkpt>
      <trkpt lat="48.54507" lon="1.97755">
        <ele>158.27</ele>
        <time>2015-10-18T12:48:34Z</time>
      </trkpt>
      <trkpt lat="48.54498" lon="1.97785">
        <ele>157.79</ele>
        <time>2015-10-18T12:48:54Z</time>
      </trkpt>
      <trkpt lat="48.54491" lon="1.97806">
        <ele>157.79</ele>
        <time>2015-10-18T12:49:10Z</time>
      </trkpt>
      <trkpt lat="48.54482" lon="1.97832">
        <ele>157.79</ele>
        <time>2015-10-18T12:49:27Z</time>
      </trkpt>
      <trkpt lat="48.54474" lon="1.97857">
        <ele>157.79</ele>
        <time>2015-10-18T12:49:44Z</time>
      </trkpt>
      <trkpt lat="48.54469" lon="1.97879">
        <ele>157.31</ele>
        <time>2015-10-18T12:50:04Z</time>
      </trkpt>
      <trkpt lat="48.54473" lon="1.97884">
        <ele>157.79</ele>
        <time>2015-10-18T12:50:38Z</time>
      </trkpt>
      <trkpt lat="48.54459" lon="1.97899">
        <ele>157.31</ele>
        <time>2015-10-18T12:51:02Z</time>
      </trkpt>
      <trkpt lat="48.54459" lon="1.97906">
        <ele>157.31</ele>
        <time>2015-10-18T12:51:22Z</time>
      </trkpt>
      <trkpt lat="48.54455" lon="1.9791">
        <ele>157.31</ele>
        <time>2015-10-18T12:51:44Z</time>
      </trkpt>
      <trkpt lat="48.54449" lon="1.97911">
        <ele>157.31</ele>
        <time>2015-10-18T12:52:00Z</time>
      </trkpt>
      <trkpt lat="48.54442" lon="1.97935">
        <ele>157.31</ele>
        <time>2015-10-18T12:52:19Z</time>
      </trkpt>
      <trkpt lat="48.54437" lon="1.97956">
        <ele>157.31</ele>
        <time>2015-10-18T12:52:37Z</time>
      </trkpt>
      <trkpt lat="48.54426" lon="1.97981">
        <ele>157.31</ele>
        <time>2015-10-18T12:52:57Z</time>
      </trkpt>
      <trkpt lat="48.5442" lon="1.98004">
        <ele>157.31</ele>
        <time>2015-10-18T12:53:16Z</time>
      </trkpt>
      <trkpt lat="48.5441" lon="1.9803">
        <ele>156.83</ele>
        <time>2015-10-18T12:53:36Z</time>
      </trkpt>
      <trkpt lat="48.544" lon="1.98057">
        <ele>156.83</ele>
        <time>2015-10-18T12:53:55Z</time>
      </trkpt>
      <trkpt lat="48.54393" lon="1.9808">
        <ele>156.83</ele>
        <time>2015-10-18T12:54:12Z</time>
      </trkpt>
      <trkpt lat="48.54383" lon="1.98109">
        <ele>156.35</ele>
        <time>2015-10-18T12:54:33Z</time>
      </trkpt>
      <trkpt lat="48.54376" lon="1.98129">
        <ele>155.87</ele>
        <time>2015-10-18T12:54:49Z</time>
      </trkpt>
      <trkpt lat="48.54365" lon="1.98154">
        <ele>155.87</ele>
        <time>2015-10-18T12:55:09Z</time>
      </trkpt>
      <trkpt lat="48.54357" lon="1.98185">
        <ele>155.87</ele>
        <time>2015-10-18T12:55:28Z</time>
      </trkpt>
      <trkpt lat="48.54353" lon="1.98206">
        <ele>155.87</ele>
        <time>2015-10-18T12:55:43Z</time>
      </trkpt>
      <trkpt lat="48.54351" lon="1.98209">
        <ele>155.87</ele>
        <time>2015-10-18T12:56:05Z</time>
      </trkpt>
      <trkpt lat="48.54346" lon="1.98243">
        <ele>155.87</ele>
        <time>2015-10-18T12:56:25Z</time>
      </trkpt>
      <trkpt lat="48.54345" lon="1.98274">
        <ele>156.35</ele>
        <time>2015-10-18T12:56:44Z</time>
      </trkpt>
      <trkpt lat="48.54342" lon="1.98308">
        <ele>156.35</ele>
        <time>2015-10-18T12:57:04Z</time>
      </trkpt>
      <trkpt lat="48.54339" lon="1.98315">
        <ele>156.35</ele>
        <time>2015-10-18T12:57:23Z</time>
      </trkpt>
      <trkpt lat="48.5434" lon="1.98334">
        <ele>156.35</ele>
        <time>2015-10-18T12:57:44Z</time>
      </trkpt>
      <trkpt lat="48.54338" lon="1.98366">
        <ele>156.35</ele>
        <time>2015-10-18T12:58:03Z</time>
      </trkpt>
      <trkpt lat="48.54334" lon="1.984">
        <ele>156.35</ele>
        <time>2015-10-18T12:58:23Z</time>
      </trkpt>
      <trkpt lat="48.54333" lon="1.98431">
        <ele>156.35</ele>
        <time>2015-10-18T12:58:42Z</time>
      </trkpt>
      <trkpt lat="48.54334" lon="1.98465">
        <ele>156.35</ele>
        <time>2015-10-18T12:59:03Z</time>
      </trkpt>
      <trkpt lat="48.54332" lon="1.98493">
        <ele>155.87</ele>
        <time>2015-10-18T12:59:20Z</time>
      </trkpt>
      <trkpt lat="48.54331" lon="1.98519">
        <ele>155.87</ele>
        <time>2015-10-18T12:59:38Z</time>
      </trkpt>
      <trkpt lat="48.54334" lon="1.98546">
        <ele>156.35</ele>
        <time>2015-10-18T12:59:53Z</time>
      </trkpt>
      <trkpt lat="48.54334" lon="1.9857">
        <ele>156.35</ele>
        <time>2015-10-18T13:00:09Z</time>
      </trkpt>
      <trkpt lat="48.54336" lon="1.98605">
        <ele>156.35</ele>
        <time>2015-10-18T13:00:30Z</time>
      </trkpt>
      <trkpt lat="48.54333" lon="1.98629">
        <ele>156.35</ele>
        <time>2015-10-18T13:00:48Z</time>
      </trkpt>
      <trkpt lat="48.54326" lon="1.98616">
        <ele>156.35</ele>
        <time>2015-10-18T13:01:14Z</time>
      </trkpt>
      <trkpt lat="48.54329" lon="1.98636">
        <ele>155.87</ele>
        <time>2015-10-18T13:01:38Z</time>
      </trkpt>
      <trkpt lat="48.54329" lon="1.98671">
        <ele>155.87</ele>
        <time>2015-10-18T13:01:58Z</time>
      </trkpt>
      <trkpt lat="48.54323" lon="1.98691">
        <ele>155.87</ele>
        <time>2015-10-18T13:02:14Z</time>
      </trkpt>
      <trkpt lat="48.54321" lon="1.98711">
        <ele>155.39</ele>
        <time>2015-10-18T13:02:28Z</time>
      </trkpt>
      <trkpt lat="48.54317" lon="1.98727">
        <ele>155.87</ele>
        <time>2015-10-18T13:02:37Z</time>
      </trkpt>
      <trkpt lat="48.54304" lon="1.98754">
        <ele>155.39</ele>
        <time>2015-10-18T13:02:55Z</time>
      </trkpt>
      <trkpt lat="48.54294" lon="1.98771">
        <ele>155.87</ele>
        <time>2015-10-18T13:03:11Z</time>
      </trkpt>
      <trkpt lat="48.54284" lon="1.98793">
        <ele>155.87</ele>
        <time>2015-10-18T13:03:29Z</time>
      </trkpt>
      <trkpt lat="48.54277" lon="1.98807">
        <ele>155.39</ele>
        <time>2015-10-18T13:03:47Z</time>
      </trkpt>
      <trkpt lat="48.54268" lon="1.9883">
        <ele>153.95</ele>
        <time>2015-10-18T13:04:06Z</time>
      </trkpt>
      <trkpt lat="48.54255" lon="1.9885">
        <ele>154.43</ele>
        <time>2015-10-18T13:04:23Z</time>
      </trkpt>
      <trkpt lat="48.54241" lon="1.98866">
        <ele>153.95</ele>
        <time>2015-10-18T13:04:39Z</time>
      </trkpt>
      <trkpt lat="48.54229" lon="1.98885">
        <ele>152.03</ele>
        <time>2015-10-18T13:04:56Z</time>
      </trkpt>
      <trkpt lat="48.54222" lon="1.98899">
        <ele>150.58</ele>
        <time>2015-10-18T13:05:12Z</time>
      </trkpt>
      <trkpt lat="48.54207" lon="1.98917">
        <ele>148.66</ele>
        <time>2015-10-18T13:05:30Z</time>
      </trkpt>
      <trkpt lat="48.54198" lon="1.98923">
        <ele>146.26</ele>
        <time>2015-10-18T13:05:47Z</time>
      </trkpt>
      <trkpt lat="48.54178" lon="1.98937">
        <ele>143.85</ele>
        <time>2015-10-18T13:06:09Z</time>
      </trkpt>
      <trkpt lat="48.54159" lon="1.98949">
        <ele>142.41</ele>
        <time>2015-10-18T13:06:30Z</time>
      </trkpt>
      <trkpt lat="48.54144" lon="1.98963">
        <ele>141.45</ele>
        <time>2015-10-18T13:06:50Z</time>
      </trkpt>
      <trkpt lat="48.5413" lon="1.9898">
        <ele>140.01</ele>
        <time>2015-10-18T13:07:10Z</time>
      </trkpt>
      <trkpt lat="48.54126" lon="1.98983">
        <ele>139.53</ele>
        <time>2015-10-18T13:07:33Z</time>
      </trkpt>
      <trkpt lat="48.5412" lon="1.9899">
        <ele>139.53</ele>
        <time>2015-10-18T13:07:50Z</time>
      </trkpt>
      <trkpt lat="48.54116" lon="1.98983">
        <ele>139.53</ele>
        <time>2015-10-18T13:08:17Z</time>
      </trkpt>
      <trkpt lat="48.54116" lon="1.98979">
        <ele>139.53</ele>
        <time>2015-10-18T13:08:44Z</time>
      </trkpt>
      <trkpt lat="48.54117" lon="1.98987">
        <ele>139.53</ele>
        <time>2015-10-18T13:09:07Z</time>
      </trkpt>
      <trkpt lat="48.54116" lon="1.98976">
        <ele>139.53</ele>
        <time>2015-10-18T13:09:39Z</time>
      </trkpt>
      <trkpt lat="48.54115" lon="1.98973">
        <ele>140.01</ele>
        <time>2015-10-18T13:10:05Z</time>
      </trkpt>
      <trkpt lat="48.54113" lon="1.98976">
        <ele>140.49</ele>
        <time>2015-10-18T13:10:35Z</time>
      </trkpt>
      <trkpt lat="48.54126" lon="1.9897">
        <ele>140.49</ele>
        <time>2015-10-18T13:10:57Z</time>
      </trkpt>
      <trkpt lat="48.54134" lon="1.98973">
        <ele>140.97</ele>
        <time>2015-10-18T13:11:21Z</time>
      </trkpt>
      <trkpt lat="48.54133" lon="1.98978">
        <ele>141.45</ele>
        <time>2015-10-18T13:11:41Z</time>
      </trkpt>
      <trkpt lat="48.54119" lon="1.98987">
        <ele>140.01</ele>
        <time>2015-10-18T13:11:59Z</time>
      </trkpt>
      <trkpt lat="48.54115" lon="1.98991">
        <ele>140.01</ele>
        <time>2015-10-18T13:12:22Z</time>
      </trkpt>
      <trkpt lat="48.54117" lon="1.98992">
        <ele>140.01</ele>
        <time>2015-10-18T13:12:46Z</time>
      </trkpt>
      <trkpt lat="48.54115" lon="1.99">
        <ele>140.49</ele>
        <time>2015-10-18T13:13:15Z</time>
      </trkpt>
      <trkpt lat="48.5411" lon="1.99004">
        <ele>140.01</ele>
        <time>2015-10-18T13:13:43Z</time>
      </trkpt>
      <trkpt lat="48.54094" lon="1.9902">
        <ele>138.57</ele>
        <time>2015-10-18T13:14:02Z</time>
      </trkpt>
      <trkpt lat="48.5409" lon="1.99026">
        <ele>138.09</ele>
        <time>2015-10-18T13:14:18Z</time>
      </trkpt>
      <trkpt lat="48.54079" lon="1.9904">
        <ele>137.61</ele>
        <time>2015-10-18T13:14:34Z</time>
      </trkpt>
      <trkpt lat="48.54068" lon="1.99054">
        <ele>136.16</ele>
        <time>2015-10-18T13:14:52Z</time>
      </trkpt>
      <trkpt lat="48.54059" lon="1.99068">
        <ele>135.2</ele>
        <time>2015-10-18T13:15:11Z</time>
      </trkpt>
      <trkpt lat="48.54045" lon="1.99085">
        <ele>134.24</ele>
        <time>2015-10-18T13:15:29Z</time>
      </trkpt>
      <trkpt lat="48.54034" lon="1.99103">
        <ele>133.28</ele>
        <time>2015-10-18T13:15:47Z</time>
      </trkpt>
      <trkpt lat="48.54015" lon="1.99123">
        <ele>132.32</ele>
        <time>2015-10-18T13:16:07Z</time>
      </trkpt>
      <trkpt lat="48.54" lon="1.99136">
        <ele>131.36</ele>
        <time>2015-10-18T13:16:28Z</time>
      </trkpt>
      <trkpt lat="48.53983" lon="1.99148">
        <ele>131.36</ele>
        <time>2015-10-18T13:16:46Z</time>
      </trkpt>
      <trkpt lat="48.53962" lon="1.9916">
        <ele>131.84</ele>
        <time>2015-10-18T13:17:04Z</time>
      </trkpt>
      <trkpt lat="48.53948" lon="1.99166">
        <ele>132.32</ele>
        <time>2015-10-18T13:17:17Z</time>
      </trkpt>
      <trkpt lat="48.53936" lon="1.99175">
        <ele>133.76</ele>
        <time>2015-10-18T13:17:32Z</time>
      </trkpt>
      <trkpt lat="48.53923" lon="1.99188">
        <ele>134.72</ele>
        <time>2015-10-18T13:17:47Z</time>
      </trkpt>
      <trkpt lat="48.53921" lon="1.99183">
        <ele>134.72</ele>
        <time>2015-10-18T13:18:08Z</time>
      </trkpt>
      <trkpt lat="48.53912" lon="1.99194">
        <ele>135.2</ele>
        <time>2015-10-18T13:18:30Z</time>
      </trkpt>
      <trkpt lat="48.53897" lon="1.9921">
        <ele>134.72</ele>
        <time>2015-10-18T13:18:47Z</time>
      </trkpt>
      <trkpt lat="48.53886" lon="1.99233">
        <ele>135.2</ele>
        <time>2015-10-18T13:19:05Z</time>
      </trkpt>
      <trkpt lat="48.53878" lon="1.99257">
        <ele>135.2</ele>
        <time>2015-10-18T13:19:24Z</time>
      </trkpt>
      <trkpt lat="48.53874" lon="1.99273">
        <ele>136.16</ele>
        <time>2015-10-18T13:19:42Z</time>
      </trkpt>
      <trkpt lat="48.53874" lon="1.99271">
        <ele>135.68</ele>
        <time>2015-10-18T13:20:01Z</time>
      </trkpt>
      <trkpt lat="48.53875" lon="1.99266">
        <ele>135.68</ele>
        <time>2015-10-18T13:20:19Z</time>
      </trkpt>
      <trkpt lat="48.53876" lon="1.99247">
        <ele>134.72</ele>
        <time>2015-10-18T13:20:35Z</time>
      </trkpt>
      <trkpt lat="48.53873" lon="1.99243">
        <ele>133.76</ele>
        <time>2015-10-18T13:20:49Z</time>
      </trkpt>
      <trkpt lat="48.53868" lon="1.99245">
        <ele>133.28</ele>
        <time>2015-10-18T13:21:07Z</time>
      </trkpt>
      <trkpt lat="48.53858" lon="1.99241">
        <ele>130.88</ele>
        <time>2015-10-18T13:21:23Z</time>
      </trkpt>
      <trkpt lat="48.53838" lon="1.99242">
        <ele>128.47</ele>
        <time>2015-10-18T13:21:41Z</time>
      </trkpt>
      <trkpt lat="48.53821" lon="1.99237">
        <ele>126.55</ele>
        <time>2015-10-18T13:22:00Z</time>
      </trkpt>
      <trkpt lat="48.53803" lon="1.99229">
        <ele>124.63</ele>
        <time>2015-10-18T13:22:18Z</time>
      </trkpt>
      <trkpt lat="48.53781" lon="1.99229">
        <ele>123.19</ele>
        <time>2015-10-18T13:22:39Z</time>
      </trkpt>
      <trkpt lat="48.53759" lon="1.99226">
        <ele>122.22</ele>
        <time>2015-10-18T13:22:59Z</time>
      </trkpt>
      <trkpt lat="48.53739" lon="1.99223">
        <ele>121.26</ele>
        <time>2015-10-18T13:23:20Z</time>
      </trkpt>
      <trkpt lat="48.53713" lon="1.99219">
        <ele>120.78</ele>
        <time>2015-10-18T13:23:41Z</time>
      </trkpt>
      <trkpt lat="48.53707" lon="1.99219">
        <ele>120.78</ele>
        <time>2015-10-18T13:24:02Z</time>
      </trkpt>
      <trkpt lat="48.53699" lon="1.99215">
        <ele>119.82</ele>
        <time>2015-10-18T13:24:09Z</time>
      </trkpt>
      <trkpt lat="48.53681" lon="1.99211">
        <ele>119.34</ele>
        <time>2015-10-18T13:24:26Z</time>
      </trkpt>
      <trkpt lat="48.53677" lon="1.99209">
        <ele>119.34</ele>
        <time>2015-10-18T13:24:45Z</time>
      </trkpt>
      <trkpt lat="48.53677" lon="1.992">
        <ele>119.82</ele>
        <time>2015-10-18T13:25:10Z</time>
      </trkpt>
      <trkpt lat="48.53678" lon="1.99211">
        <ele>119.82</ele>
        <time>2015-10-18T13:25:35Z</time>
      </trkpt>
      <trkpt lat="48.53678" lon="1.99202">
        <ele>119.82</ele>
        <time>2015-10-18T13:25:58Z</time>
      </trkpt>
      <trkpt lat="48.53677" lon="1.99203">
        <ele>119.82</ele>
        <time>2015-10-18T13:26:20Z</time>
      </trkpt>
      <trkpt lat="48.53678" lon="1.9921">
        <ele>119.34</ele>
        <time>2015-10-18T13:26:48Z</time>
      </trkpt>
      <trkpt lat="48.53675" lon="1.99203">
        <ele>119.82</ele>
        <time>2015-10-18T13:27:15Z</time>
      </trkpt>
      <trkpt lat="48.53671" lon="1.99206">
        <ele>119.34</ele>
        <time>2015-10-18T13:27:32Z</time>
      </trkpt>
      <trkpt lat="48.53674" lon="1.99203">
        <ele>118.86</ele>
        <time>2015-10-18T13:27:49Z</time>
      </trkpt>
      <trkpt lat="48.53671" lon="1.9921">
        <ele>119.34</ele>
        <time>2015-10-18T13:28:05Z</time>
      </trkpt>
      <trkpt lat="48.53663" lon="1.99215">
        <ele>118.86</ele>
        <time>2015-10-18T13:28:19Z</time>
      </trkpt>
      <trkpt lat="48.53662" lon="1.9922">
        <ele>118.86</ele>
        <time>2015-10-18T13:28:23Z</time>
      </trkpt>
      <trkpt lat="48.53657" lon="1.99229">
        <ele>119.34</ele>
        <time>2015-10-18T13:28:32Z</time>
      </trkpt>
      <trkpt lat="48.5365" lon="1.99247">
        <ele>119.82</ele>
        <time>2015-10-18T13:28:46Z</time>
      </trkpt>
      <trkpt lat="48.5364" lon="1.99271">
        <ele>119.82</ele>
        <time>2015-10-18T13:29:06Z</time>
      </trkpt>
      <trkpt lat="48.53633" lon="1.99298">
        <ele>119.34</ele>
        <time>2015-10-18T13:29:23Z</time>
      </trkpt>
      <trkpt lat="48.53629" lon="1.99332">
        <ele>119.34</ele>
        <time>2015-10-18T13:29:43Z</time>
      </trkpt>
      <trkpt lat="48.53624" lon="1.9936">
        <ele>118.86</ele>
        <time>2015-10-18T13:30:02Z</time>
      </trkpt>
      <trkpt lat="48.53618" lon="1.99392">
        <ele>118.38</ele>
        <time>2015-10-18T13:30:22Z</time>
      </trkpt>
      <trkpt lat="48.53611" lon="1.99417">
        <ele>117.42</ele>
        <time>2015-10-18T13:30:41Z</time>
      </trkpt>
      <trkpt lat="48.53604" lon="1.99455">
        <ele>116.94</ele>
        <time>2015-10-18T13:31:03Z</time>
      </trkpt>
      <trkpt lat="48.53597" lon="1.99481">
        <ele>115.98</ele>
        <time>2015-10-18T13:31:19Z</time>
      </trkpt>
      <trkpt lat="48.53586" lon="1.99507">
        <ele>115.98</ele>
        <time>2015-10-18T13:31:38Z</time>
      </trkpt>
      <trkpt lat="48.53583" lon="1.99539">
        <ele>115.5</ele>
        <time>2015-10-18T13:31:56Z</time>
      </trkpt>
      <trkpt lat="48.53579" lon="1.99567">
        <ele>115.01</ele>
        <time>2015-10-18T13:32:14Z</time>
      </trkpt>
      <trkpt lat="48.53575" lon="1.99592">
        <ele>114.53</ele>
        <time>2015-10-18T13:32:33Z</time>
      </trkpt>
      <trkpt lat="48.53574" lon="1.99619">
        <ele>114.05</ele>
        <time>2015-10-18T13:32:53Z</time>
      </trkpt>
      <trkpt lat="48.53573" lon="1.99652">
        <ele>113.09</ele>
        <time>2015-10-18T13:33:11Z</time>
      </trkpt>
      <trkpt lat="48.53567" lon="1.99678">
        <ele>113.09</ele>
        <time>2015-10-18T13:33:28Z</time>
      </trkpt>
      <trkpt lat="48.53562" lon="1.99702">
        <ele>112.61</ele>
        <time>2015-10-18T13:33:43Z</time>
      </trkpt>
      <trkpt lat="48.53559" lon="1.99731">
        <ele>113.09</ele>
        <time>2015-10-18T13:34:00Z</time>
      </trkpt>
      <trkpt lat="48.53555" lon="1.99762">
        <ele>112.61</ele>
        <time>2015-10-18T13:34:19Z</time>
      </trkpt>
      <trkpt lat="48.53551" lon="1.9979">
        <ele>112.61</ele>
        <time>2015-10-18T13:34:36Z</time>
      </trkpt>
      <trkpt lat="48.53548" lon="1.99815">
        <ele>112.61</ele>
        <time>2015-10-18T13:34:51Z</time>
      </trkpt>
      <trkpt lat="48.53543" lon="1.99838">
        <ele>113.09</ele>
        <time>2015-10-18T13:35:07Z</time>
      </trkpt>
      <trkpt lat="48.53539" lon="1.99863">
        <ele>113.57</ele>
        <time>2015-10-18T13:35:25Z</time>
      </trkpt>
      <trkpt lat="48.53536" lon="1.99893">
        <ele>113.57</ele>
        <time>2015-10-18T13:35:43Z</time>
      </trkpt>
      <trkpt lat="48.53533" lon="1.99917">
        <ele>113.57</ele>
        <time>2015-10-18T13:35:59Z</time>
      </trkpt>
      <trkpt lat="48.53529" lon="1.9995">
        <ele>113.09</ele>
        <time>2015-10-18T13:36:20Z</time>
      </trkpt>
      <trkpt lat="48.53525" lon="1.99978">
        <ele>113.57</ele>
        <time>2015-10-18T13:36:37Z</time>
      </trkpt>
      <trkpt lat="48.5352" lon="2.00003">
        <ele>113.09</ele>
        <time>2015-10-18T13:36:51Z</time>
      </trkpt>
      <trkpt lat="48.53518" lon="2.00016">
        <ele>113.57</ele>
        <time>2015-10-18T13:36:59Z</time>
      </trkpt>
      <trkpt lat="48.53517" lon="2.00023">
        <ele>113.57</ele>
        <time>2015-10-18T13:37:04Z</time>
      </trkpt>
      <trkpt lat="48.53514" lon="2.00052">
        <ele>113.09</ele>
        <time>2015-10-18T13:37:23Z</time>
      </trkpt>
      <trkpt lat="48.5351" lon="2.00074">
        <ele>112.61</ele>
        <time>2015-10-18T13:37:39Z</time>
      </trkpt>
      <trkpt lat="48.53504" lon="2.00105">
        <ele>111.65</ele>
        <time>2015-10-18T13:37:59Z</time>
      </trkpt>
      <trkpt lat="48.53501" lon="2.00135">
        <ele>110.69</ele>
        <time>2015-10-18T13:38:19Z</time>
      </trkpt>
      <trkpt lat="48.53497" lon="2.00164">
        <ele>109.25</ele>
        <time>2015-10-18T13:38:36Z</time>
      </trkpt>
      <trkpt lat="48.53485" lon="2.0017">
        <ele>109.25</ele>
        <time>2015-10-18T13:38:53Z</time>
      </trkpt>
      <trkpt lat="48.53472" lon="2.00154">
        <ele>108.77</ele>
        <time>2015-10-18T13:39:12Z</time>
      </trkpt>
      <trkpt lat="48.53475" lon="2.00164">
        <ele>109.25</ele>
        <time>2015-10-18T13:39:27Z</time>
      </trkpt>
      <trkpt lat="48.53475" lon="2.00164">
        <ele>109.25</ele>
        <time>2015-10-18T13:39:31Z</time>
      </trkpt>
      <trkpt lat="48.53467" lon="2.00178">
        <ele>109.25</ele>
        <time>2015-10-18T13:39:42Z</time>
      </trkpt>
      <trkpt lat="48.53462" lon="2.00179">
        <ele>109.25</ele>
        <time>2015-10-18T13:39:47Z</time>
      </trkpt>
      <trkpt lat="48.53457" lon="2.00185">
        <ele>109.25</ele>
        <time>2015-10-18T13:39:52Z</time>
      </trkpt>
      <trkpt lat="48.53456" lon="2.002">
        <ele>108.77</ele>
        <time>2015-10-18T13:40:05Z</time>
      </trkpt>
      <trkpt lat="48.53457" lon="2.00197">
        <ele>108.77</ele>
        <time>2015-10-18T13:40:08Z</time>
      </trkpt>
      <trkpt lat="48.53461" lon="2.00189">
        <ele>108.77</ele>
        <time>2015-10-18T13:40:25Z</time>
      </trkpt>
      <trkpt lat="48.53457" lon="2.00195">
        <ele>108.77</ele>
        <time>2015-10-18T13:40:42Z</time>
      </trkpt>
      <trkpt lat="48.53455" lon="2.00199">
        <ele>108.77</ele>
        <time>2015-10-18T13:40:45Z</time>
      </trkpt>
      <trkpt lat="48.53452" lon="2.00214">
        <ele>108.77</ele>
        <time>2015-10-18T13:40:58Z</time>
      </trkpt>
      <trkpt lat="48.53446" lon="2.00242">
        <ele>109.25</ele>
        <time>2015-10-18T13:41:15Z</time>
      </trkpt>
      <trkpt lat="48.5344" lon="2.00264">
        <ele>108.77</ele>
        <time>2015-10-18T13:41:34Z</time>
      </trkpt>
      <trkpt lat="48.53436" lon="2.00288">
        <ele>109.25</ele>
        <time>2015-10-18T13:41:50Z</time>
      </trkpt>
      <trkpt lat="48.53436" lon="2.0029">
        <ele>109.25</ele>
        <time>2015-10-18T13:41:51Z</time>
      </trkpt>
      <trkpt lat="48.53429" lon="2.00313">
        <ele>109.73</ele>
        <time>2015-10-18T13:42:07Z</time>
      </trkpt>
      <trkpt lat="48.53426" lon="2.00333">
        <ele>110.21</ele>
        <time>2015-10-18T13:42:21Z</time>
      </trkpt>
      <trkpt lat="48.53421" lon="2.00359">
        <ele>110.69</ele>
        <time>2015-10-18T13:42:38Z</time>
      </trkpt>
      <trkpt lat="48.53417" lon="2.00384">
        <ele>111.17</ele>
        <time>2015-10-18T13:42:52Z</time>
      </trkpt>
      <trkpt lat="48.53413" lon="2.00414">
        <ele>111.65</ele>
        <time>2015-10-18T13:43:10Z</time>
      </trkpt>
      <trkpt lat="48.53409" lon="2.00438">
        <ele>112.13</ele>
        <time>2015-10-18T13:43:25Z</time>
      </trkpt>
      <trkpt lat="48.53407" lon="2.00443">
        <ele>112.61</ele>
        <time>2015-10-18T13:43:28Z</time>
      </trkpt>
      <trkpt lat="48.53403" lon="2.0047">
        <ele>113.09</ele>
        <time>2015-10-18T13:43:46Z</time>
      </trkpt>
      <trkpt lat="48.534" lon="2.0049">
        <ele>113.57</ele>
        <time>2015-10-18T13:44:00Z</time>
      </trkpt>
      <trkpt lat="48.53397" lon="2.00499">
        <ele>114.05</ele>
        <time>2015-10-18T13:44:07Z</time>
      </trkpt>
      <trkpt lat="48.53396" lon="2.00514">
        <ele>114.53</ele>
        <time>2015-10-18T13:44:16Z</time>
      </trkpt>
      <trkpt lat="48.53393" lon="2.00544">
        <ele>115.01</ele>
        <time>2015-10-18T13:44:32Z</time>
      </trkpt>
      <trkpt lat="48.5339" lon="2.0057">
        <ele>115.5</ele>
        <time>2015-10-18T13:44:47Z</time>
      </trkpt>
      <trkpt lat="48.53387" lon="2.00589">
        <ele>115.98</ele>
        <time>2015-10-18T13:45:00Z</time>
      </trkpt>
      <trkpt lat="48.53386" lon="2.00602">
        <ele>115.98</ele>
        <time>2015-10-18T13:45:09Z</time>
      </trkpt>
      <trkpt lat="48.53383" lon="2.00614">
        <ele>116.46</ele>
        <time>2015-10-18T13:45:17Z</time>
      </trkpt>
      <trkpt lat="48.53381" lon="2.00625">
        <ele>116.46</ele>
        <time>2015-10-18T13:45:24Z</time>
      </trkpt>
      <trkpt lat="48.53381" lon="2.0065">
        <ele>116.94</ele>
        <time>2015-10-18T13:45:40Z</time>
      </trkpt>
      <trkpt lat="48.53381" lon="2.00672">
        <ele>116.94</ele>
        <time>2015-10-18T13:45:53Z</time>
      </trkpt>
      <trkpt lat="48.53379" lon="2.00676">
        <ele>117.42</ele>
        <time>2015-10-18T13:45:55Z</time>
      </trkpt>
      <trkpt lat="48.53378" lon="2.007">
        <ele>117.42</ele>
        <time>2015-10-18T13:46:05Z</time>
      </trkpt>
      <trkpt lat="48.53373" lon="2.00727">
        <ele>117.42</ele>
        <time>2015-10-18T13:46:22Z</time>
      </trkpt>
      <trkpt lat="48.5337" lon="2.00739">
        <ele>116.94</ele>
        <time>2015-10-18T13:46:29Z</time>
      </trkpt>
      <trkpt lat="48.53367" lon="2.00761">
        <ele>117.42</ele>
        <time>2015-10-18T13:46:43Z</time>
      </trkpt>
      <trkpt lat="48.53363" lon="2.00788">
        <ele>116.94</ele>
        <time>2015-10-18T13:47:01Z</time>
      </trkpt>
      <trkpt lat="48.53359" lon="2.00815">
        <ele>116.94</ele>
        <time>2015-10-18T13:47:16Z</time>
      </trkpt>
      <trkpt lat="48.53355" lon="2.00834">
        <ele>116.46</ele>
        <time>2015-10-18T13:47:29Z</time>
      </trkpt>
      <trkpt lat="48.53345" lon="2.00849">
        <ele>116.46</ele>
        <time>2015-10-18T13:47:43Z</time>
      </trkpt>
      <trkpt lat="48.53344" lon="2.00849">
        <ele>116.46</ele>
        <time>2015-10-18T13:47:44Z</time>
      </trkpt>
      <trkpt lat="48.53337" lon="2.00856">
        <ele>116.46</ele>
        <time>2015-10-18T13:47:52Z</time>
      </trkpt>
      <trkpt lat="48.53334" lon="2.0088">
        <ele>116.94</ele>
        <time>2015-10-18T13:48:07Z</time>
      </trkpt>
      <trkpt lat="48.53336" lon="2.00901">
        <ele>116.46</ele>
        <time>2015-10-18T13:48:19Z</time>
      </trkpt>
      <trkpt lat="48.53342" lon="2.00921">
        <ele>116.46</ele>
        <time>2015-10-18T13:48:34Z</time>
      </trkpt>
      <trkpt lat="48.53341" lon="2.00941">
        <ele>116.46</ele>
        <time>2015-10-18T13:48:49Z</time>
      </trkpt>
      <trkpt lat="48.5334" lon="2.00945">
        <ele>115.5</ele>
        <time>2015-10-18T13:48:53Z</time>
      </trkpt>
      <trkpt lat="48.53335" lon="2.00966">
        <ele>115.98</ele>
        <time>2015-10-18T13:49:08Z</time>
      </trkpt>
      <trkpt lat="48.53335" lon="2.00963">
        <ele>116.46</ele>
        <time>2015-10-18T13:49:30Z</time>
      </trkpt>
      <trkpt lat="48.53333" lon="2.00961">
        <ele>115.98</ele>
        <time>2015-10-18T13:49:48Z</time>
      </trkpt>
      <trkpt lat="48.53335" lon="2.00957">
        <ele>116.46</ele>
        <time>2015-10-18T13:50:11Z</time>
      </trkpt>
    </trkseg>
  </trk>
</gpx>